<?xml version="1.0" encoding="UTF-8" standalone="no" ?>
<gpx xmlns="http://www.topografix.com/GPX/1/1" xmlns:xsi="http://www.w3.org/2001/XMLSchema-instance" xsi:schemaLocation="http://www.topografix.com/GPX/1/1 http://www.topografix.com/GPX/1/1/gpx.xsd" version="1.1" creator="VisuGPX - https://www.visugpx.com">
  <metadata>
    <name>La forêt des Flambertins</name>
    <desc><![CDATA[Départ à la gare SNCF de Mareil sur Mauldre, arrivée à la gare SNCF de Beynes. Nous passerons par Herbeville, la forêt des Flambertins, Crespiere, la Maladrerie. Daniel BAIJOT]]></desc>
  </metadata>
  <trk>
    <name><![CDATA[Tracé actuel: 15 MARS 2014 08:46]]></name>
    <trkseg>
      <trkpt lat="48.89267" lon="1.87188">
        <ele>50.61</ele>
        <time>2014-03-15T07:46:32Z</time>
      </trkpt>
      <trkpt lat="48.89277" lon="1.87184">
        <ele>53.97</ele>
        <time>2014-03-15T07:46:44Z</time>
      </trkpt>
      <trkpt lat="48.89284" lon="1.87182">
        <ele>55.89</ele>
        <time>2014-03-15T07:46:50Z</time>
      </trkpt>
      <trkpt lat="48.89309" lon="1.87175">
        <ele>60.22</ele>
        <time>2014-03-15T07:47:11Z</time>
      </trkpt>
      <trkpt lat="48.89328" lon="1.87172">
        <ele>58.3</ele>
        <time>2014-03-15T07:47:28Z</time>
      </trkpt>
      <trkpt lat="48.89352" lon="1.87162">
        <ele>56.37</ele>
        <time>2014-03-15T07:47:48Z</time>
      </trkpt>
      <trkpt lat="48.89371" lon="1.87151">
        <ele>55.41</ele>
        <time>2014-03-15T07:48:07Z</time>
      </trkpt>
      <trkpt lat="48.89394" lon="1.87138">
        <ele>52.05</ele>
        <time>2014-03-15T07:48:27Z</time>
      </trkpt>
      <trkpt lat="48.89393" lon="1.87148">
        <ele>51.09</ele>
        <time>2014-03-15T07:48:38Z</time>
      </trkpt>
      <trkpt lat="48.89389" lon="1.87164">
        <ele>48.2</ele>
        <time>2014-03-15T07:48:51Z</time>
      </trkpt>
      <trkpt lat="48.89396" lon="1.87159">
        <ele>42.92</ele>
        <time>2014-03-15T07:49:03Z</time>
      </trkpt>
      <trkpt lat="48.89403" lon="1.87155">
        <ele>39.07</ele>
        <time>2014-03-15T07:49:10Z</time>
      </trkpt>
      <trkpt lat="48.89423" lon="1.87141">
        <ele>37.63</ele>
        <time>2014-03-15T07:49:23Z</time>
      </trkpt>
      <trkpt lat="48.89427" lon="1.87136">
        <ele>37.63</ele>
        <time>2014-03-15T07:49:26Z</time>
      </trkpt>
      <trkpt lat="48.89438" lon="1.87129">
        <ele>36.19</ele>
        <time>2014-03-15T07:49:39Z</time>
      </trkpt>
      <trkpt lat="48.89449" lon="1.87122">
        <ele>34.26</ele>
        <time>2014-03-15T07:50:02Z</time>
      </trkpt>
      <trkpt lat="48.89461" lon="1.87116">
        <ele>30.42</ele>
        <time>2014-03-15T07:50:16Z</time>
      </trkpt>
      <trkpt lat="48.89479" lon="1.87109">
        <ele>29.46</ele>
        <time>2014-03-15T07:50:30Z</time>
      </trkpt>
      <trkpt lat="48.895" lon="1.871">
        <ele>35.71</ele>
        <time>2014-03-15T07:50:42Z</time>
      </trkpt>
      <trkpt lat="48.89521" lon="1.87101">
        <ele>41.95</ele>
        <time>2014-03-15T07:50:57Z</time>
      </trkpt>
      <trkpt lat="48.89536" lon="1.87094">
        <ele>44.84</ele>
        <time>2014-03-15T07:51:09Z</time>
      </trkpt>
      <trkpt lat="48.89553" lon="1.87085">
        <ele>53.97</ele>
        <time>2014-03-15T07:51:24Z</time>
      </trkpt>
      <trkpt lat="48.89564" lon="1.87069">
        <ele>50.13</ele>
        <time>2014-03-15T07:51:40Z</time>
      </trkpt>
      <trkpt lat="48.89584" lon="1.87069">
        <ele>49.65</ele>
        <time>2014-03-15T07:51:54Z</time>
      </trkpt>
      <trkpt lat="48.8959" lon="1.87081">
        <ele>53.01</ele>
        <time>2014-03-15T07:52:01Z</time>
      </trkpt>
      <trkpt lat="48.89594" lon="1.87087">
        <ele>54.93</ele>
        <time>2014-03-15T07:52:09Z</time>
      </trkpt>
      <trkpt lat="48.89597" lon="1.87091">
        <ele>54.45</ele>
        <time>2014-03-15T07:52:13Z</time>
      </trkpt>
      <trkpt lat="48.89611" lon="1.87109">
        <ele>58.3</ele>
        <time>2014-03-15T07:52:30Z</time>
      </trkpt>
      <trkpt lat="48.89616" lon="1.87114">
        <ele>57.82</ele>
        <time>2014-03-15T07:52:36Z</time>
      </trkpt>
      <trkpt lat="48.89632" lon="1.87138">
        <ele>61.18</ele>
        <time>2014-03-15T07:52:51Z</time>
      </trkpt>
      <trkpt lat="48.89641" lon="1.8715">
        <ele>64.07</ele>
        <time>2014-03-15T07:53:04Z</time>
      </trkpt>
      <trkpt lat="48.89652" lon="1.87166">
        <ele>65.51</ele>
        <time>2014-03-15T07:53:17Z</time>
      </trkpt>
      <trkpt lat="48.89662" lon="1.87181">
        <ele>65.03</ele>
        <time>2014-03-15T07:53:32Z</time>
      </trkpt>
      <trkpt lat="48.89669" lon="1.872">
        <ele>67.43</ele>
        <time>2014-03-15T07:53:47Z</time>
      </trkpt>
      <trkpt lat="48.89674" lon="1.87222">
        <ele>71.76</ele>
        <time>2014-03-15T07:54:01Z</time>
      </trkpt>
      <trkpt lat="48.89678" lon="1.87239">
        <ele>74.16</ele>
        <time>2014-03-15T07:54:14Z</time>
      </trkpt>
      <trkpt lat="48.89678" lon="1.87241">
        <ele>74.16</ele>
        <time>2014-03-15T07:54:16Z</time>
      </trkpt>
      <trkpt lat="48.8968" lon="1.87255">
        <ele>77.52</ele>
        <time>2014-03-15T07:54:27Z</time>
      </trkpt>
      <trkpt lat="48.89684" lon="1.87272">
        <ele>78.97</ele>
        <time>2014-03-15T07:54:40Z</time>
      </trkpt>
      <trkpt lat="48.89687" lon="1.87291">
        <ele>81.37</ele>
        <time>2014-03-15T07:54:53Z</time>
      </trkpt>
      <trkpt lat="48.89691" lon="1.87309">
        <ele>83.29</ele>
        <time>2014-03-15T07:55:06Z</time>
      </trkpt>
      <trkpt lat="48.89695" lon="1.87327">
        <ele>85.21</ele>
        <time>2014-03-15T07:55:18Z</time>
      </trkpt>
      <trkpt lat="48.89697" lon="1.87332">
        <ele>85.69</ele>
        <time>2014-03-15T07:55:23Z</time>
      </trkpt>
      <trkpt lat="48.89699" lon="1.87348">
        <ele>85.69</ele>
        <time>2014-03-15T07:55:35Z</time>
      </trkpt>
      <trkpt lat="48.89708" lon="1.8737">
        <ele>87.14</ele>
        <time>2014-03-15T07:55:49Z</time>
      </trkpt>
      <trkpt lat="48.89716" lon="1.87392">
        <ele>88.1</ele>
        <time>2014-03-15T07:56:04Z</time>
      </trkpt>
      <trkpt lat="48.89723" lon="1.87414">
        <ele>89.06</ele>
        <time>2014-03-15T07:56:18Z</time>
      </trkpt>
      <trkpt lat="48.89725" lon="1.87417">
        <ele>89.06</ele>
        <time>2014-03-15T07:56:33Z</time>
      </trkpt>
      <trkpt lat="48.89731" lon="1.87451">
        <ele>89.06</ele>
        <time>2014-03-15T07:56:52Z</time>
      </trkpt>
      <trkpt lat="48.89741" lon="1.8748">
        <ele>89.54</ele>
        <time>2014-03-15T07:57:09Z</time>
      </trkpt>
      <trkpt lat="48.89749" lon="1.87521">
        <ele>89.54</ele>
        <time>2014-03-15T07:57:31Z</time>
      </trkpt>
      <trkpt lat="48.89754" lon="1.87555">
        <ele>89.54</ele>
        <time>2014-03-15T07:57:50Z</time>
      </trkpt>
      <trkpt lat="48.89763" lon="1.87591">
        <ele>89.54</ele>
        <time>2014-03-15T07:58:09Z</time>
      </trkpt>
      <trkpt lat="48.89767" lon="1.87625">
        <ele>90.02</ele>
        <time>2014-03-15T07:58:26Z</time>
      </trkpt>
      <trkpt lat="48.89773" lon="1.87658">
        <ele>91.46</ele>
        <time>2014-03-15T07:58:44Z</time>
      </trkpt>
      <trkpt lat="48.89779" lon="1.87688">
        <ele>94.35</ele>
        <time>2014-03-15T07:59:00Z</time>
      </trkpt>
      <trkpt lat="48.89788" lon="1.87716">
        <ele>94.35</ele>
        <time>2014-03-15T07:59:16Z</time>
      </trkpt>
      <trkpt lat="48.89789" lon="1.87719">
        <ele>94.83</ele>
        <time>2014-03-15T07:59:18Z</time>
      </trkpt>
      <trkpt lat="48.89795" lon="1.87738">
        <ele>94.35</ele>
        <time>2014-03-15T07:59:30Z</time>
      </trkpt>
      <trkpt lat="48.89805" lon="1.87769">
        <ele>94.83</ele>
        <time>2014-03-15T07:59:47Z</time>
      </trkpt>
      <trkpt lat="48.89815" lon="1.87804">
        <ele>95.79</ele>
        <time>2014-03-15T08:00:05Z</time>
      </trkpt>
      <trkpt lat="48.89821" lon="1.87818">
        <ele>96.27</ele>
        <time>2014-03-15T08:00:17Z</time>
      </trkpt>
      <trkpt lat="48.89831" lon="1.87854">
        <ele>96.27</ele>
        <time>2014-03-15T08:00:35Z</time>
      </trkpt>
      <trkpt lat="48.89839" lon="1.87881">
        <ele>95.31</ele>
        <time>2014-03-15T08:00:51Z</time>
      </trkpt>
      <trkpt lat="48.89845" lon="1.87902">
        <ele>95.31</ele>
        <time>2014-03-15T08:01:04Z</time>
      </trkpt>
      <trkpt lat="48.8985" lon="1.87921">
        <ele>98.19</ele>
        <time>2014-03-15T08:01:17Z</time>
      </trkpt>
      <trkpt lat="48.89862" lon="1.87958">
        <ele>103.96</ele>
        <time>2014-03-15T08:01:37Z</time>
      </trkpt>
      <trkpt lat="48.89875" lon="1.87987">
        <ele>103.96</ele>
        <time>2014-03-15T08:01:55Z</time>
      </trkpt>
      <trkpt lat="48.89888" lon="1.88011">
        <ele>97.71</ele>
        <time>2014-03-15T08:02:13Z</time>
      </trkpt>
      <trkpt lat="48.899" lon="1.88039">
        <ele>93.87</ele>
        <time>2014-03-15T08:02:31Z</time>
      </trkpt>
      <trkpt lat="48.89915" lon="1.88068">
        <ele>97.71</ele>
        <time>2014-03-15T08:02:48Z</time>
      </trkpt>
      <trkpt lat="48.89929" lon="1.88094">
        <ele>94.83</ele>
        <time>2014-03-15T08:03:07Z</time>
      </trkpt>
      <trkpt lat="48.8995" lon="1.88123">
        <ele>100.11</ele>
        <time>2014-03-15T08:03:27Z</time>
      </trkpt>
      <trkpt lat="48.89965" lon="1.88144">
        <ele>100.6</ele>
        <time>2014-03-15T08:03:45Z</time>
      </trkpt>
      <trkpt lat="48.89981" lon="1.88169">
        <ele>97.23</ele>
        <time>2014-03-15T08:04:05Z</time>
      </trkpt>
      <trkpt lat="48.90001" lon="1.88197">
        <ele>97.23</ele>
        <time>2014-03-15T08:04:27Z</time>
      </trkpt>
      <trkpt lat="48.90017" lon="1.88233">
        <ele>100.6</ele>
        <time>2014-03-15T08:04:46Z</time>
      </trkpt>
      <trkpt lat="48.9003" lon="1.88259">
        <ele>106.36</ele>
        <time>2014-03-15T08:05:04Z</time>
      </trkpt>
      <trkpt lat="48.90036" lon="1.88267">
        <ele>105.88</ele>
        <time>2014-03-15T08:05:11Z</time>
      </trkpt>
      <trkpt lat="48.90052" lon="1.88295">
        <ele>103.96</ele>
        <time>2014-03-15T08:05:32Z</time>
      </trkpt>
      <trkpt lat="48.90069" lon="1.88324">
        <ele>103.48</ele>
        <time>2014-03-15T08:05:53Z</time>
      </trkpt>
      <trkpt lat="48.90082" lon="1.88352">
        <ele>100.11</ele>
        <time>2014-03-15T08:06:13Z</time>
      </trkpt>
      <trkpt lat="48.90092" lon="1.88369">
        <ele>99.63</ele>
        <time>2014-03-15T08:06:22Z</time>
      </trkpt>
      <trkpt lat="48.90111" lon="1.88396">
        <ele>101.56</ele>
        <time>2014-03-15T08:06:39Z</time>
      </trkpt>
      <trkpt lat="48.90122" lon="1.88412">
        <ele>103.96</ele>
        <time>2014-03-15T08:06:54Z</time>
      </trkpt>
      <trkpt lat="48.90132" lon="1.88431">
        <ele>103</ele>
        <time>2014-03-15T08:07:07Z</time>
      </trkpt>
      <trkpt lat="48.90141" lon="1.88446">
        <ele>102.04</ele>
        <time>2014-03-15T08:07:18Z</time>
      </trkpt>
      <trkpt lat="48.90157" lon="1.88465">
        <ele>101.08</ele>
        <time>2014-03-15T08:07:34Z</time>
      </trkpt>
      <trkpt lat="48.90171" lon="1.88477">
        <ele>103</ele>
        <time>2014-03-15T08:07:48Z</time>
      </trkpt>
      <trkpt lat="48.90188" lon="1.88492">
        <ele>105.88</ele>
        <time>2014-03-15T08:08:06Z</time>
      </trkpt>
      <trkpt lat="48.90206" lon="1.88505">
        <ele>108.77</ele>
        <time>2014-03-15T08:08:21Z</time>
      </trkpt>
      <trkpt lat="48.90223" lon="1.88519">
        <ele>108.77</ele>
        <time>2014-03-15T08:08:32Z</time>
      </trkpt>
      <trkpt lat="48.90246" lon="1.88536">
        <ele>108.29</ele>
        <time>2014-03-15T08:08:49Z</time>
      </trkpt>
      <trkpt lat="48.90264" lon="1.88553">
        <ele>110.21</ele>
        <time>2014-03-15T08:09:07Z</time>
      </trkpt>
      <trkpt lat="48.90283" lon="1.88568">
        <ele>110.69</ele>
        <time>2014-03-15T08:09:27Z</time>
      </trkpt>
      <trkpt lat="48.90302" lon="1.88581">
        <ele>114.53</ele>
        <time>2014-03-15T08:09:45Z</time>
      </trkpt>
      <trkpt lat="48.90322" lon="1.88596">
        <ele>115.98</ele>
        <time>2014-03-15T08:09:59Z</time>
      </trkpt>
      <trkpt lat="48.9034" lon="1.88608">
        <ele>117.42</ele>
        <time>2014-03-15T08:10:15Z</time>
      </trkpt>
      <trkpt lat="48.90355" lon="1.88618">
        <ele>115.98</ele>
        <time>2014-03-15T08:10:32Z</time>
      </trkpt>
      <trkpt lat="48.90375" lon="1.88634">
        <ele>115.98</ele>
        <time>2014-03-15T08:10:50Z</time>
      </trkpt>
      <trkpt lat="48.90393" lon="1.88648">
        <ele>118.38</ele>
        <time>2014-03-15T08:11:03Z</time>
      </trkpt>
      <trkpt lat="48.9041" lon="1.88658">
        <ele>121.74</ele>
        <time>2014-03-15T08:11:17Z</time>
      </trkpt>
      <trkpt lat="48.90423" lon="1.88668">
        <ele>123.67</ele>
        <time>2014-03-15T08:11:28Z</time>
      </trkpt>
      <trkpt lat="48.90441" lon="1.88674">
        <ele>125.11</ele>
        <time>2014-03-15T08:11:41Z</time>
      </trkpt>
      <trkpt lat="48.90456" lon="1.88676">
        <ele>121.74</ele>
        <time>2014-03-15T08:11:58Z</time>
      </trkpt>
      <trkpt lat="48.90464" lon="1.88678">
        <ele>122.22</ele>
        <time>2014-03-15T08:12:06Z</time>
      </trkpt>
      <trkpt lat="48.90468" lon="1.88682">
        <ele>122.71</ele>
        <time>2014-03-15T08:12:10Z</time>
      </trkpt>
      <trkpt lat="48.90487" lon="1.88695">
        <ele>118.86</ele>
        <time>2014-03-15T08:12:28Z</time>
      </trkpt>
      <trkpt lat="48.90489" lon="1.88698">
        <ele>117.9</ele>
        <time>2014-03-15T08:12:41Z</time>
      </trkpt>
      <trkpt lat="48.9049" lon="1.887">
        <ele>117.9</ele>
        <time>2014-03-15T08:12:59Z</time>
      </trkpt>
      <trkpt lat="48.90491" lon="1.88705">
        <ele>119.34</ele>
        <time>2014-03-15T08:13:29Z</time>
      </trkpt>
      <trkpt lat="48.90491" lon="1.88706">
        <ele>119.82</ele>
        <time>2014-03-15T08:13:45Z</time>
      </trkpt>
      <trkpt lat="48.90502" lon="1.88724">
        <ele>121.74</ele>
        <time>2014-03-15T08:14:00Z</time>
      </trkpt>
      <trkpt lat="48.90504" lon="1.88737">
        <ele>120.78</ele>
        <time>2014-03-15T08:14:13Z</time>
      </trkpt>
      <trkpt lat="48.90493" lon="1.88755">
        <ele>117.42</ele>
        <time>2014-03-15T08:14:29Z</time>
      </trkpt>
      <trkpt lat="48.90487" lon="1.88763">
        <ele>117.9</ele>
        <time>2014-03-15T08:14:35Z</time>
      </trkpt>
      <trkpt lat="48.90476" lon="1.88782">
        <ele>115.01</ele>
        <time>2014-03-15T08:14:49Z</time>
      </trkpt>
      <trkpt lat="48.90475" lon="1.88786">
        <ele>115.01</ele>
        <time>2014-03-15T08:14:51Z</time>
      </trkpt>
      <trkpt lat="48.90469" lon="1.88796">
        <ele>116.94</ele>
        <time>2014-03-15T08:15:06Z</time>
      </trkpt>
      <trkpt lat="48.90462" lon="1.88811">
        <ele>116.46</ele>
        <time>2014-03-15T08:15:23Z</time>
      </trkpt>
      <trkpt lat="48.90479" lon="1.88776">
        <ele>117.9</ele>
        <time>2014-03-15T08:15:42Z</time>
      </trkpt>
      <trkpt lat="48.9049" lon="1.88754">
        <ele>119.82</ele>
        <time>2014-03-15T08:15:56Z</time>
      </trkpt>
      <trkpt lat="48.90497" lon="1.88745">
        <ele>120.78</ele>
        <time>2014-03-15T08:16:05Z</time>
      </trkpt>
      <trkpt lat="48.90502" lon="1.88743">
        <ele>121.26</ele>
        <time>2014-03-15T08:16:08Z</time>
      </trkpt>
      <trkpt lat="48.90511" lon="1.88738">
        <ele>123.67</ele>
        <time>2014-03-15T08:16:16Z</time>
      </trkpt>
      <trkpt lat="48.90526" lon="1.8876">
        <ele>127.51</ele>
        <time>2014-03-15T08:16:31Z</time>
      </trkpt>
      <trkpt lat="48.90534" lon="1.88763">
        <ele>130.88</ele>
        <time>2014-03-15T08:16:50Z</time>
      </trkpt>
      <trkpt lat="48.90535" lon="1.88763">
        <ele>130.88</ele>
        <time>2014-03-15T08:16:52Z</time>
      </trkpt>
      <trkpt lat="48.90529" lon="1.88757">
        <ele>131.36</ele>
        <time>2014-03-15T08:16:57Z</time>
      </trkpt>
      <trkpt lat="48.90513" lon="1.88739">
        <ele>127.99</ele>
        <time>2014-03-15T08:17:13Z</time>
      </trkpt>
      <trkpt lat="48.90509" lon="1.88738">
        <ele>127.03</ele>
        <time>2014-03-15T08:17:17Z</time>
      </trkpt>
      <trkpt lat="48.90492" lon="1.88759">
        <ele>125.59</ele>
        <time>2014-03-15T08:17:31Z</time>
      </trkpt>
      <trkpt lat="48.90479" lon="1.88782">
        <ele>123.67</ele>
        <time>2014-03-15T08:17:47Z</time>
      </trkpt>
      <trkpt lat="48.90466" lon="1.88808">
        <ele>124.63</ele>
        <time>2014-03-15T08:18:02Z</time>
      </trkpt>
      <trkpt lat="48.90456" lon="1.88829">
        <ele>122.22</ele>
        <time>2014-03-15T08:18:17Z</time>
      </trkpt>
      <trkpt lat="48.90443" lon="1.88863">
        <ele>122.22</ele>
        <time>2014-03-15T08:18:33Z</time>
      </trkpt>
      <trkpt lat="48.9044" lon="1.88883">
        <ele>119.82</ele>
        <time>2014-03-15T08:18:46Z</time>
      </trkpt>
      <trkpt lat="48.90434" lon="1.88915">
        <ele>117.9</ele>
        <time>2014-03-15T08:19:01Z</time>
      </trkpt>
      <trkpt lat="48.90427" lon="1.88952">
        <ele>114.53</ele>
        <time>2014-03-15T08:19:19Z</time>
      </trkpt>
      <trkpt lat="48.90425" lon="1.88961">
        <ele>114.53</ele>
        <time>2014-03-15T08:19:23Z</time>
      </trkpt>
      <trkpt lat="48.90421" lon="1.88968">
        <ele>113.57</ele>
        <time>2014-03-15T08:19:29Z</time>
      </trkpt>
      <trkpt lat="48.90414" lon="1.88997">
        <ele>114.53</ele>
        <time>2014-03-15T08:19:43Z</time>
      </trkpt>
      <trkpt lat="48.90414" lon="1.89001">
        <ele>113.57</ele>
        <time>2014-03-15T08:19:50Z</time>
      </trkpt>
      <trkpt lat="48.90411" lon="1.89008">
        <ele>112.61</ele>
        <time>2014-03-15T08:19:53Z</time>
      </trkpt>
      <trkpt lat="48.90406" lon="1.89042">
        <ele>112.13</ele>
        <time>2014-03-15T08:20:06Z</time>
      </trkpt>
      <trkpt lat="48.90402" lon="1.89059">
        <ele>112.13</ele>
        <time>2014-03-15T08:20:17Z</time>
      </trkpt>
      <trkpt lat="48.90395" lon="1.89082">
        <ele>108.77</ele>
        <time>2014-03-15T08:20:29Z</time>
      </trkpt>
      <trkpt lat="48.9039" lon="1.89093">
        <ele>108.77</ele>
        <time>2014-03-15T08:20:38Z</time>
      </trkpt>
      <trkpt lat="48.90388" lon="1.89096">
        <ele>108.77</ele>
        <time>2014-03-15T08:20:40Z</time>
      </trkpt>
      <trkpt lat="48.90381" lon="1.89112">
        <ele>112.13</ele>
        <time>2014-03-15T08:20:48Z</time>
      </trkpt>
      <trkpt lat="48.90373" lon="1.89134">
        <ele>116.46</ele>
        <time>2014-03-15T08:21:00Z</time>
      </trkpt>
      <trkpt lat="48.90371" lon="1.89136">
        <ele>117.42</ele>
        <time>2014-03-15T08:21:02Z</time>
      </trkpt>
      <trkpt lat="48.9037" lon="1.89147">
        <ele>117.9</ele>
        <time>2014-03-15T08:21:09Z</time>
      </trkpt>
      <trkpt lat="48.90367" lon="1.89158">
        <ele>117.42</ele>
        <time>2014-03-15T08:21:16Z</time>
      </trkpt>
      <trkpt lat="48.9036" lon="1.89184">
        <ele>124.15</ele>
        <time>2014-03-15T08:21:32Z</time>
      </trkpt>
      <trkpt lat="48.90355" lon="1.89199">
        <ele>131.36</ele>
        <time>2014-03-15T08:21:47Z</time>
      </trkpt>
      <trkpt lat="48.90353" lon="1.89208">
        <ele>133.76</ele>
        <time>2014-03-15T08:21:57Z</time>
      </trkpt>
      <trkpt lat="48.90354" lon="1.89213">
        <ele>135.2</ele>
        <time>2014-03-15T08:22:01Z</time>
      </trkpt>
      <trkpt lat="48.90352" lon="1.89228">
        <ele>140.49</ele>
        <time>2014-03-15T08:22:11Z</time>
      </trkpt>
      <trkpt lat="48.90351" lon="1.89242">
        <ele>143.37</ele>
        <time>2014-03-15T08:22:21Z</time>
      </trkpt>
      <trkpt lat="48.9035" lon="1.89246">
        <ele>143.85</ele>
        <time>2014-03-15T08:22:25Z</time>
      </trkpt>
      <trkpt lat="48.9035" lon="1.89255">
        <ele>144.34</ele>
        <time>2014-03-15T08:22:32Z</time>
      </trkpt>
      <trkpt lat="48.90347" lon="1.89268">
        <ele>148.18</ele>
        <time>2014-03-15T08:22:45Z</time>
      </trkpt>
      <trkpt lat="48.90346" lon="1.8927">
        <ele>150.1</ele>
        <time>2014-03-15T08:22:48Z</time>
      </trkpt>
      <trkpt lat="48.90344" lon="1.89282">
        <ele>157.31</ele>
        <time>2014-03-15T08:23:01Z</time>
      </trkpt>
      <trkpt lat="48.90342" lon="1.89297">
        <ele>159.72</ele>
        <time>2014-03-15T08:23:09Z</time>
      </trkpt>
      <trkpt lat="48.90339" lon="1.89301">
        <ele>159.24</ele>
        <time>2014-03-15T08:23:12Z</time>
      </trkpt>
      <trkpt lat="48.90334" lon="1.89332">
        <ele>152.03</ele>
        <time>2014-03-15T08:23:25Z</time>
      </trkpt>
      <trkpt lat="48.90332" lon="1.89349">
        <ele>146.26</ele>
        <time>2014-03-15T08:23:31Z</time>
      </trkpt>
      <trkpt lat="48.90319" lon="1.8938">
        <ele>143.37</ele>
        <time>2014-03-15T08:23:44Z</time>
      </trkpt>
      <trkpt lat="48.90306" lon="1.89407">
        <ele>140.49</ele>
        <time>2014-03-15T08:23:58Z</time>
      </trkpt>
      <trkpt lat="48.90302" lon="1.89413">
        <ele>140.49</ele>
        <time>2014-03-15T08:24:04Z</time>
      </trkpt>
      <trkpt lat="48.90299" lon="1.89418">
        <ele>140.97</ele>
        <time>2014-03-15T08:24:08Z</time>
      </trkpt>
      <trkpt lat="48.90286" lon="1.89443">
        <ele>140.01</ele>
        <time>2014-03-15T08:24:23Z</time>
      </trkpt>
      <trkpt lat="48.90283" lon="1.8945">
        <ele>139.53</ele>
        <time>2014-03-15T08:24:27Z</time>
      </trkpt>
      <trkpt lat="48.90279" lon="1.89463">
        <ele>140.49</ele>
        <time>2014-03-15T08:24:38Z</time>
      </trkpt>
      <trkpt lat="48.90276" lon="1.89479">
        <ele>138.57</ele>
        <time>2014-03-15T08:24:50Z</time>
      </trkpt>
      <trkpt lat="48.9027" lon="1.89502">
        <ele>136.64</ele>
        <time>2014-03-15T08:25:07Z</time>
      </trkpt>
      <trkpt lat="48.90261" lon="1.89524">
        <ele>134.72</ele>
        <time>2014-03-15T08:25:23Z</time>
      </trkpt>
      <trkpt lat="48.90255" lon="1.89536">
        <ele>133.28</ele>
        <time>2014-03-15T08:25:43Z</time>
      </trkpt>
      <trkpt lat="48.90243" lon="1.89558">
        <ele>133.76</ele>
        <time>2014-03-15T08:25:54Z</time>
      </trkpt>
      <trkpt lat="48.90228" lon="1.89589">
        <ele>129.43</ele>
        <time>2014-03-15T08:26:11Z</time>
      </trkpt>
      <trkpt lat="48.90209" lon="1.89622">
        <ele>131.84</ele>
        <time>2014-03-15T08:26:30Z</time>
      </trkpt>
      <trkpt lat="48.902" lon="1.8964">
        <ele>128.47</ele>
        <time>2014-03-15T08:26:45Z</time>
      </trkpt>
      <trkpt lat="48.90194" lon="1.89657">
        <ele>125.11</ele>
        <time>2014-03-15T08:27:00Z</time>
      </trkpt>
      <trkpt lat="48.90177" lon="1.89688">
        <ele>123.67</ele>
        <time>2014-03-15T08:27:16Z</time>
      </trkpt>
      <trkpt lat="48.90156" lon="1.8972">
        <ele>124.63</ele>
        <time>2014-03-15T08:27:34Z</time>
      </trkpt>
      <trkpt lat="48.90144" lon="1.89741">
        <ele>123.67</ele>
        <time>2014-03-15T08:27:49Z</time>
      </trkpt>
      <trkpt lat="48.90141" lon="1.8975">
        <ele>122.71</ele>
        <time>2014-03-15T08:27:58Z</time>
      </trkpt>
      <trkpt lat="48.90125" lon="1.89775">
        <ele>121.74</ele>
        <time>2014-03-15T08:28:15Z</time>
      </trkpt>
      <trkpt lat="48.90105" lon="1.89798">
        <ele>120.78</ele>
        <time>2014-03-15T08:28:31Z</time>
      </trkpt>
      <trkpt lat="48.90099" lon="1.89816">
        <ele>119.34</ele>
        <time>2014-03-15T08:28:46Z</time>
      </trkpt>
      <trkpt lat="48.90099" lon="1.89817">
        <ele>118.86</ele>
        <time>2014-03-15T08:28:47Z</time>
      </trkpt>
      <trkpt lat="48.90094" lon="1.89834">
        <ele>116.94</ele>
        <time>2014-03-15T08:28:55Z</time>
      </trkpt>
      <trkpt lat="48.90089" lon="1.89849">
        <ele>118.38</ele>
        <time>2014-03-15T08:29:04Z</time>
      </trkpt>
      <trkpt lat="48.90084" lon="1.89863">
        <ele>116.46</ele>
        <time>2014-03-15T08:29:18Z</time>
      </trkpt>
      <trkpt lat="48.90079" lon="1.89875">
        <ele>114.53</ele>
        <time>2014-03-15T08:29:31Z</time>
      </trkpt>
      <trkpt lat="48.90077" lon="1.89878">
        <ele>114.53</ele>
        <time>2014-03-15T08:29:39Z</time>
      </trkpt>
      <trkpt lat="48.90058" lon="1.89896">
        <ele>117.42</ele>
        <time>2014-03-15T08:29:52Z</time>
      </trkpt>
      <trkpt lat="48.90041" lon="1.89919">
        <ele>118.86</ele>
        <time>2014-03-15T08:30:05Z</time>
      </trkpt>
      <trkpt lat="48.90028" lon="1.89937">
        <ele>117.9</ele>
        <time>2014-03-15T08:30:18Z</time>
      </trkpt>
      <trkpt lat="48.90007" lon="1.89958">
        <ele>119.82</ele>
        <time>2014-03-15T08:30:37Z</time>
      </trkpt>
      <trkpt lat="48.89986" lon="1.8998">
        <ele>120.3</ele>
        <time>2014-03-15T08:30:55Z</time>
      </trkpt>
      <trkpt lat="48.89965" lon="1.90001">
        <ele>122.71</ele>
        <time>2014-03-15T08:31:13Z</time>
      </trkpt>
      <trkpt lat="48.89955" lon="1.90015">
        <ele>119.34</ele>
        <time>2014-03-15T08:31:28Z</time>
      </trkpt>
      <trkpt lat="48.89943" lon="1.90028">
        <ele>116.46</ele>
        <time>2014-03-15T08:31:44Z</time>
      </trkpt>
      <trkpt lat="48.89933" lon="1.90039">
        <ele>117.9</ele>
        <time>2014-03-15T08:31:53Z</time>
      </trkpt>
      <trkpt lat="48.89927" lon="1.90045">
        <ele>118.38</ele>
        <time>2014-03-15T08:32:09Z</time>
      </trkpt>
      <trkpt lat="48.89921" lon="1.90059">
        <ele>115.5</ele>
        <time>2014-03-15T08:32:27Z</time>
      </trkpt>
      <trkpt lat="48.89917" lon="1.90061">
        <ele>117.42</ele>
        <time>2014-03-15T08:32:37Z</time>
      </trkpt>
      <trkpt lat="48.89911" lon="1.90078">
        <ele>125.11</ele>
        <time>2014-03-15T08:38:01Z</time>
      </trkpt>
      <trkpt lat="48.89914" lon="1.90092">
        <ele>126.55</ele>
        <time>2014-03-15T08:38:07Z</time>
      </trkpt>
      <trkpt lat="48.89928" lon="1.90103">
        <ele>128.47</ele>
        <time>2014-03-15T08:38:16Z</time>
      </trkpt>
      <trkpt lat="48.8993" lon="1.90109">
        <ele>128.47</ele>
        <time>2014-03-15T08:38:20Z</time>
      </trkpt>
      <trkpt lat="48.8993" lon="1.90112">
        <ele>128.47</ele>
        <time>2014-03-15T08:38:22Z</time>
      </trkpt>
      <trkpt lat="48.89941" lon="1.90137">
        <ele>126.55</ele>
        <time>2014-03-15T08:38:37Z</time>
      </trkpt>
      <trkpt lat="48.89944" lon="1.90145">
        <ele>128.95</ele>
        <time>2014-03-15T08:38:48Z</time>
      </trkpt>
      <trkpt lat="48.89949" lon="1.90162">
        <ele>128.95</ele>
        <time>2014-03-15T08:39:01Z</time>
      </trkpt>
      <trkpt lat="48.8995" lon="1.90165">
        <ele>129.92</ele>
        <time>2014-03-15T08:39:03Z</time>
      </trkpt>
      <trkpt lat="48.89954" lon="1.90186">
        <ele>131.84</ele>
        <time>2014-03-15T08:39:18Z</time>
      </trkpt>
      <trkpt lat="48.89956" lon="1.90217">
        <ele>134.24</ele>
        <time>2014-03-15T08:39:33Z</time>
      </trkpt>
      <trkpt lat="48.8996" lon="1.90244">
        <ele>133.76</ele>
        <time>2014-03-15T08:39:45Z</time>
      </trkpt>
      <trkpt lat="48.89963" lon="1.90259">
        <ele>132.8</ele>
        <time>2014-03-15T08:39:53Z</time>
      </trkpt>
      <trkpt lat="48.89965" lon="1.90272">
        <ele>133.76</ele>
        <time>2014-03-15T08:40:01Z</time>
      </trkpt>
      <trkpt lat="48.89973" lon="1.90301">
        <ele>137.13</ele>
        <time>2014-03-15T08:40:16Z</time>
      </trkpt>
      <trkpt lat="48.89974" lon="1.90304">
        <ele>138.57</ele>
        <time>2014-03-15T08:40:19Z</time>
      </trkpt>
      <trkpt lat="48.8998" lon="1.90313">
        <ele>140.49</ele>
        <time>2014-03-15T08:40:28Z</time>
      </trkpt>
      <trkpt lat="48.89993" lon="1.90335">
        <ele>138.57</ele>
        <time>2014-03-15T08:40:42Z</time>
      </trkpt>
      <trkpt lat="48.90002" lon="1.90349">
        <ele>137.61</ele>
        <time>2014-03-15T08:40:57Z</time>
      </trkpt>
      <trkpt lat="48.90014" lon="1.90358">
        <ele>139.05</ele>
        <time>2014-03-15T08:41:09Z</time>
      </trkpt>
      <trkpt lat="48.90021" lon="1.90366">
        <ele>139.53</ele>
        <time>2014-03-15T08:41:14Z</time>
      </trkpt>
      <trkpt lat="48.90037" lon="1.9039">
        <ele>141.45</ele>
        <time>2014-03-15T08:41:27Z</time>
      </trkpt>
      <trkpt lat="48.90051" lon="1.90409">
        <ele>144.82</ele>
        <time>2014-03-15T08:41:43Z</time>
      </trkpt>
      <trkpt lat="48.90062" lon="1.90427">
        <ele>147.7</ele>
        <time>2014-03-15T08:41:55Z</time>
      </trkpt>
      <trkpt lat="48.90066" lon="1.90441">
        <ele>145.78</ele>
        <time>2014-03-15T08:42:07Z</time>
      </trkpt>
      <trkpt lat="48.9007" lon="1.9045">
        <ele>145.3</ele>
        <time>2014-03-15T08:42:13Z</time>
      </trkpt>
      <trkpt lat="48.90073" lon="1.90463">
        <ele>147.22</ele>
        <time>2014-03-15T08:42:20Z</time>
      </trkpt>
      <trkpt lat="48.9008" lon="1.90476">
        <ele>147.7</ele>
        <time>2014-03-15T08:42:28Z</time>
      </trkpt>
      <trkpt lat="48.90081" lon="1.9048">
        <ele>147.7</ele>
        <time>2014-03-15T08:42:30Z</time>
      </trkpt>
      <trkpt lat="48.90087" lon="1.905">
        <ele>149.14</ele>
        <time>2014-03-15T08:42:40Z</time>
      </trkpt>
      <trkpt lat="48.90098" lon="1.90524">
        <ele>148.66</ele>
        <time>2014-03-15T08:42:54Z</time>
      </trkpt>
      <trkpt lat="48.90099" lon="1.90528">
        <ele>150.1</ele>
        <time>2014-03-15T08:43:00Z</time>
      </trkpt>
      <trkpt lat="48.90104" lon="1.90537">
        <ele>153.47</ele>
        <time>2014-03-15T08:43:08Z</time>
      </trkpt>
      <trkpt lat="48.90111" lon="1.90547">
        <ele>156.83</ele>
        <time>2014-03-15T08:43:18Z</time>
      </trkpt>
      <trkpt lat="48.90113" lon="1.90551">
        <ele>156.83</ele>
        <time>2014-03-15T08:43:21Z</time>
      </trkpt>
      <trkpt lat="48.90121" lon="1.9056">
        <ele>161.16</ele>
        <time>2014-03-15T08:43:34Z</time>
      </trkpt>
      <trkpt lat="48.90129" lon="1.90568">
        <ele>164.52</ele>
        <time>2014-03-15T08:43:45Z</time>
      </trkpt>
      <trkpt lat="48.9014" lon="1.90578">
        <ele>167.41</ele>
        <time>2014-03-15T08:43:57Z</time>
      </trkpt>
      <trkpt lat="48.90145" lon="1.90581">
        <ele>168.85</ele>
        <time>2014-03-15T08:44:03Z</time>
      </trkpt>
      <trkpt lat="48.90152" lon="1.90591">
        <ele>172.21</ele>
        <time>2014-03-15T08:44:14Z</time>
      </trkpt>
      <trkpt lat="48.90164" lon="1.90601">
        <ele>173.66</ele>
        <time>2014-03-15T08:44:27Z</time>
      </trkpt>
      <trkpt lat="48.90176" lon="1.90611">
        <ele>173.17</ele>
        <time>2014-03-15T08:44:40Z</time>
      </trkpt>
      <trkpt lat="48.90181" lon="1.90612">
        <ele>173.17</ele>
        <time>2014-03-15T08:44:44Z</time>
      </trkpt>
      <trkpt lat="48.9019" lon="1.90619">
        <ele>174.62</ele>
        <time>2014-03-15T08:44:58Z</time>
      </trkpt>
      <trkpt lat="48.90194" lon="1.90621">
        <ele>175.1</ele>
        <time>2014-03-15T08:45:05Z</time>
      </trkpt>
      <trkpt lat="48.90212" lon="1.90622">
        <ele>176.54</ele>
        <time>2014-03-15T08:45:19Z</time>
      </trkpt>
      <trkpt lat="48.90214" lon="1.90621">
        <ele>177.02</ele>
        <time>2014-03-15T08:45:21Z</time>
      </trkpt>
      <trkpt lat="48.90226" lon="1.90612">
        <ele>180.38</ele>
        <time>2014-03-15T08:45:37Z</time>
      </trkpt>
      <trkpt lat="48.90228" lon="1.90611">
        <ele>180.87</ele>
        <time>2014-03-15T08:45:38Z</time>
      </trkpt>
      <trkpt lat="48.90242" lon="1.90605">
        <ele>182.79</ele>
        <time>2014-03-15T08:45:46Z</time>
      </trkpt>
      <trkpt lat="48.90246" lon="1.9061">
        <ele>183.27</ele>
        <time>2014-03-15T08:45:50Z</time>
      </trkpt>
      <trkpt lat="48.90245" lon="1.90615">
        <ele>184.71</ele>
        <time>2014-03-15T08:45:53Z</time>
      </trkpt>
      <trkpt lat="48.90243" lon="1.90634">
        <ele>188.56</ele>
        <time>2014-03-15T08:46:06Z</time>
      </trkpt>
      <trkpt lat="48.90238" lon="1.90647">
        <ele>189.52</ele>
        <time>2014-03-15T08:46:15Z</time>
      </trkpt>
      <trkpt lat="48.90238" lon="1.90655">
        <ele>190</ele>
        <time>2014-03-15T08:46:21Z</time>
      </trkpt>
      <trkpt lat="48.90237" lon="1.90669">
        <ele>190.96</ele>
        <time>2014-03-15T08:46:26Z</time>
      </trkpt>
      <trkpt lat="48.90236" lon="1.90677">
        <ele>191.44</ele>
        <time>2014-03-15T08:46:29Z</time>
      </trkpt>
      <trkpt lat="48.90226" lon="1.90698">
        <ele>193.84</ele>
        <time>2014-03-15T08:46:43Z</time>
      </trkpt>
      <trkpt lat="48.90223" lon="1.90717">
        <ele>192.4</ele>
        <time>2014-03-15T08:46:55Z</time>
      </trkpt>
      <trkpt lat="48.90212" lon="1.90748">
        <ele>190.96</ele>
        <time>2014-03-15T08:47:07Z</time>
      </trkpt>
      <trkpt lat="48.9021" lon="1.90765">
        <ele>190</ele>
        <time>2014-03-15T08:47:19Z</time>
      </trkpt>
      <trkpt lat="48.90203" lon="1.90785">
        <ele>190.96</ele>
        <time>2014-03-15T08:47:28Z</time>
      </trkpt>
      <trkpt lat="48.90195" lon="1.90809">
        <ele>189.04</ele>
        <time>2014-03-15T08:47:41Z</time>
      </trkpt>
      <trkpt lat="48.90194" lon="1.90811">
        <ele>189.04</ele>
        <time>2014-03-15T08:47:42Z</time>
      </trkpt>
      <trkpt lat="48.90192" lon="1.90822">
        <ele>188.56</ele>
        <time>2014-03-15T08:47:49Z</time>
      </trkpt>
      <trkpt lat="48.9019" lon="1.90852">
        <ele>189.52</ele>
        <time>2014-03-15T08:48:04Z</time>
      </trkpt>
      <trkpt lat="48.90189" lon="1.90855">
        <ele>189.52</ele>
        <time>2014-03-15T08:48:07Z</time>
      </trkpt>
      <trkpt lat="48.90181" lon="1.90868">
        <ele>190.48</ele>
        <time>2014-03-15T08:48:20Z</time>
      </trkpt>
      <trkpt lat="48.90181" lon="1.9087">
        <ele>190.48</ele>
        <time>2014-03-15T08:48:21Z</time>
      </trkpt>
      <trkpt lat="48.90176" lon="1.90897">
        <ele>190</ele>
        <time>2014-03-15T08:48:34Z</time>
      </trkpt>
      <trkpt lat="48.90171" lon="1.90917">
        <ele>189.52</ele>
        <time>2014-03-15T08:48:45Z</time>
      </trkpt>
      <trkpt lat="48.90168" lon="1.90924">
        <ele>189.52</ele>
        <time>2014-03-15T08:48:50Z</time>
      </trkpt>
      <trkpt lat="48.90168" lon="1.90934">
        <ele>189.04</ele>
        <time>2014-03-15T08:48:54Z</time>
      </trkpt>
      <trkpt lat="48.90161" lon="1.90958">
        <ele>187.59</ele>
        <time>2014-03-15T08:49:08Z</time>
      </trkpt>
      <trkpt lat="48.90159" lon="1.9098">
        <ele>186.63</ele>
        <time>2014-03-15T08:49:22Z</time>
      </trkpt>
      <trkpt lat="48.90154" lon="1.90997">
        <ele>187.59</ele>
        <time>2014-03-15T08:49:34Z</time>
      </trkpt>
      <trkpt lat="48.90148" lon="1.91023">
        <ele>190</ele>
        <time>2014-03-15T08:49:50Z</time>
      </trkpt>
      <trkpt lat="48.90143" lon="1.91046">
        <ele>190</ele>
        <time>2014-03-15T08:49:59Z</time>
      </trkpt>
      <trkpt lat="48.90139" lon="1.9106">
        <ele>189.04</ele>
        <time>2014-03-15T08:50:06Z</time>
      </trkpt>
      <trkpt lat="48.90132" lon="1.91089">
        <ele>185.19</ele>
        <time>2014-03-15T08:50:21Z</time>
      </trkpt>
      <trkpt lat="48.90131" lon="1.91114">
        <ele>187.11</ele>
        <time>2014-03-15T08:50:37Z</time>
      </trkpt>
      <trkpt lat="48.90127" lon="1.91144">
        <ele>187.59</ele>
        <time>2014-03-15T08:50:47Z</time>
      </trkpt>
      <trkpt lat="48.90124" lon="1.91172">
        <ele>183.27</ele>
        <time>2014-03-15T08:51:00Z</time>
      </trkpt>
      <trkpt lat="48.90124" lon="1.91184">
        <ele>183.75</ele>
        <time>2014-03-15T08:51:06Z</time>
      </trkpt>
      <trkpt lat="48.90122" lon="1.91192">
        <ele>185.19</ele>
        <time>2014-03-15T08:51:16Z</time>
      </trkpt>
      <trkpt lat="48.90117" lon="1.9121">
        <ele>185.19</ele>
        <time>2014-03-15T08:51:29Z</time>
      </trkpt>
      <trkpt lat="48.90116" lon="1.91236">
        <ele>183.75</ele>
        <time>2014-03-15T08:51:45Z</time>
      </trkpt>
      <trkpt lat="48.90113" lon="1.91279">
        <ele>183.75</ele>
        <time>2014-03-15T08:52:00Z</time>
      </trkpt>
      <trkpt lat="48.90112" lon="1.91291">
        <ele>183.75</ele>
        <time>2014-03-15T08:52:05Z</time>
      </trkpt>
      <trkpt lat="48.90111" lon="1.91297">
        <ele>185.67</ele>
        <time>2014-03-15T08:52:10Z</time>
      </trkpt>
      <trkpt lat="48.90111" lon="1.91316">
        <ele>188.08</ele>
        <time>2014-03-15T08:52:24Z</time>
      </trkpt>
      <trkpt lat="48.90108" lon="1.91325">
        <ele>188.56</ele>
        <time>2014-03-15T08:52:30Z</time>
      </trkpt>
      <trkpt lat="48.90107" lon="1.91336">
        <ele>189.04</ele>
        <time>2014-03-15T08:52:34Z</time>
      </trkpt>
      <trkpt lat="48.90097" lon="1.91362">
        <ele>190.96</ele>
        <time>2014-03-15T08:52:48Z</time>
      </trkpt>
      <trkpt lat="48.90092" lon="1.91373">
        <ele>190</ele>
        <time>2014-03-15T08:52:57Z</time>
      </trkpt>
      <trkpt lat="48.90092" lon="1.91377">
        <ele>190</ele>
        <time>2014-03-15T08:52:59Z</time>
      </trkpt>
      <trkpt lat="48.90081" lon="1.91405">
        <ele>189.04</ele>
        <time>2014-03-15T08:53:11Z</time>
      </trkpt>
      <trkpt lat="48.90081" lon="1.91407">
        <ele>189.04</ele>
        <time>2014-03-15T08:53:12Z</time>
      </trkpt>
      <trkpt lat="48.90077" lon="1.91423">
        <ele>190</ele>
        <time>2014-03-15T08:53:22Z</time>
      </trkpt>
      <trkpt lat="48.9007" lon="1.91455">
        <ele>193.36</ele>
        <time>2014-03-15T08:53:35Z</time>
      </trkpt>
      <trkpt lat="48.90065" lon="1.91467">
        <ele>191.44</ele>
        <time>2014-03-15T08:53:44Z</time>
      </trkpt>
      <trkpt lat="48.90061" lon="1.9148">
        <ele>190.48</ele>
        <time>2014-03-15T08:53:49Z</time>
      </trkpt>
      <trkpt lat="48.90049" lon="1.9151">
        <ele>191.44</ele>
        <time>2014-03-15T08:54:03Z</time>
      </trkpt>
      <trkpt lat="48.90049" lon="1.91515">
        <ele>191.92</ele>
        <time>2014-03-15T08:54:06Z</time>
      </trkpt>
      <trkpt lat="48.90047" lon="1.91524">
        <ele>190.48</ele>
        <time>2014-03-15T08:54:13Z</time>
      </trkpt>
      <trkpt lat="48.90046" lon="1.9153">
        <ele>189.52</ele>
        <time>2014-03-15T08:54:16Z</time>
      </trkpt>
      <trkpt lat="48.90044" lon="1.91541">
        <ele>189.04</ele>
        <time>2014-03-15T08:54:20Z</time>
      </trkpt>
      <trkpt lat="48.90037" lon="1.91566">
        <ele>188.56</ele>
        <time>2014-03-15T08:54:34Z</time>
      </trkpt>
      <trkpt lat="48.90039" lon="1.91598">
        <ele>188.08</ele>
        <time>2014-03-15T08:54:46Z</time>
      </trkpt>
      <trkpt lat="48.9004" lon="1.91604">
        <ele>187.59</ele>
        <time>2014-03-15T08:54:50Z</time>
      </trkpt>
      <trkpt lat="48.90034" lon="1.91625">
        <ele>185.19</ele>
        <time>2014-03-15T08:55:04Z</time>
      </trkpt>
      <trkpt lat="48.90031" lon="1.91636">
        <ele>185.19</ele>
        <time>2014-03-15T08:55:13Z</time>
      </trkpt>
      <trkpt lat="48.90026" lon="1.91654">
        <ele>182.79</ele>
        <time>2014-03-15T08:55:24Z</time>
      </trkpt>
      <trkpt lat="48.90026" lon="1.91658">
        <ele>182.31</ele>
        <time>2014-03-15T08:55:26Z</time>
      </trkpt>
      <trkpt lat="48.90019" lon="1.91687">
        <ele>181.35</ele>
        <time>2014-03-15T08:55:38Z</time>
      </trkpt>
      <trkpt lat="48.90012" lon="1.91723">
        <ele>182.79</ele>
        <time>2014-03-15T08:55:54Z</time>
      </trkpt>
      <trkpt lat="48.9001" lon="1.91733">
        <ele>183.27</ele>
        <time>2014-03-15T08:55:58Z</time>
      </trkpt>
      <trkpt lat="48.90002" lon="1.9175">
        <ele>182.31</ele>
        <time>2014-03-15T08:56:10Z</time>
      </trkpt>
      <trkpt lat="48.90002" lon="1.91755">
        <ele>182.31</ele>
        <time>2014-03-15T08:56:13Z</time>
      </trkpt>
      <trkpt lat="48.89998" lon="1.91795">
        <ele>186.15</ele>
        <time>2014-03-15T08:56:27Z</time>
      </trkpt>
      <trkpt lat="48.89992" lon="1.91816">
        <ele>188.56</ele>
        <time>2014-03-15T08:56:41Z</time>
      </trkpt>
      <trkpt lat="48.89989" lon="1.91848">
        <ele>187.59</ele>
        <time>2014-03-15T08:56:54Z</time>
      </trkpt>
      <trkpt lat="48.89987" lon="1.91868">
        <ele>187.11</ele>
        <time>2014-03-15T08:57:08Z</time>
      </trkpt>
      <trkpt lat="48.89988" lon="1.91875">
        <ele>187.59</ele>
        <time>2014-03-15T08:57:12Z</time>
      </trkpt>
      <trkpt lat="48.89988" lon="1.91891">
        <ele>187.59</ele>
        <time>2014-03-15T08:57:18Z</time>
      </trkpt>
      <trkpt lat="48.89988" lon="1.91896">
        <ele>187.59</ele>
        <time>2014-03-15T08:57:20Z</time>
      </trkpt>
      <trkpt lat="48.89986" lon="1.91907">
        <ele>188.56</ele>
        <time>2014-03-15T08:57:24Z</time>
      </trkpt>
      <trkpt lat="48.89981" lon="1.91924">
        <ele>191.92</ele>
        <time>2014-03-15T08:57:32Z</time>
      </trkpt>
      <trkpt lat="48.89975" lon="1.91935">
        <ele>193.84</ele>
        <time>2014-03-15T08:57:45Z</time>
      </trkpt>
      <trkpt lat="48.89974" lon="1.91939">
        <ele>194.32</ele>
        <time>2014-03-15T08:57:48Z</time>
      </trkpt>
      <trkpt lat="48.89972" lon="1.9195">
        <ele>192.88</ele>
        <time>2014-03-15T08:57:52Z</time>
      </trkpt>
      <trkpt lat="48.89969" lon="1.9197">
        <ele>189.52</ele>
        <time>2014-03-15T08:58:00Z</time>
      </trkpt>
      <trkpt lat="48.89961" lon="1.91993">
        <ele>187.59</ele>
        <time>2014-03-15T08:58:13Z</time>
      </trkpt>
      <trkpt lat="48.89959" lon="1.92002">
        <ele>188.56</ele>
        <time>2014-03-15T08:58:18Z</time>
      </trkpt>
      <trkpt lat="48.8996" lon="1.92013">
        <ele>189.04</ele>
        <time>2014-03-15T08:58:23Z</time>
      </trkpt>
      <trkpt lat="48.89948" lon="1.92039">
        <ele>189.52</ele>
        <time>2014-03-15T08:58:37Z</time>
      </trkpt>
      <trkpt lat="48.89946" lon="1.92048">
        <ele>188.08</ele>
        <time>2014-03-15T08:58:44Z</time>
      </trkpt>
      <trkpt lat="48.89944" lon="1.92052">
        <ele>188.08</ele>
        <time>2014-03-15T08:58:46Z</time>
      </trkpt>
      <trkpt lat="48.8993" lon="1.92081">
        <ele>188.56</ele>
        <time>2014-03-15T08:59:00Z</time>
      </trkpt>
      <trkpt lat="48.8992" lon="1.92103">
        <ele>185.19</ele>
        <time>2014-03-15T08:59:15Z</time>
      </trkpt>
      <trkpt lat="48.89911" lon="1.92126">
        <ele>184.23</ele>
        <time>2014-03-15T08:59:28Z</time>
      </trkpt>
      <trkpt lat="48.89908" lon="1.92135">
        <ele>185.67</ele>
        <time>2014-03-15T08:59:36Z</time>
      </trkpt>
      <trkpt lat="48.89906" lon="1.92139">
        <ele>185.67</ele>
        <time>2014-03-15T08:59:38Z</time>
      </trkpt>
      <trkpt lat="48.89902" lon="1.92169">
        <ele>185.67</ele>
        <time>2014-03-15T08:59:49Z</time>
      </trkpt>
      <trkpt lat="48.89886" lon="1.92204">
        <ele>187.59</ele>
        <time>2014-03-15T09:00:10Z</time>
      </trkpt>
      <trkpt lat="48.8988" lon="1.92223">
        <ele>184.71</ele>
        <time>2014-03-15T09:00:22Z</time>
      </trkpt>
      <trkpt lat="48.8988" lon="1.9223">
        <ele>184.23</ele>
        <time>2014-03-15T09:00:25Z</time>
      </trkpt>
      <trkpt lat="48.89882" lon="1.92236">
        <ele>181.83</ele>
        <time>2014-03-15T09:00:28Z</time>
      </trkpt>
      <trkpt lat="48.8989" lon="1.92242">
        <ele>181.35</ele>
        <time>2014-03-15T09:00:36Z</time>
      </trkpt>
      <trkpt lat="48.89908" lon="1.92253">
        <ele>178.94</ele>
        <time>2014-03-15T09:00:48Z</time>
      </trkpt>
      <trkpt lat="48.89909" lon="1.92254">
        <ele>178.46</ele>
        <time>2014-03-15T09:00:49Z</time>
      </trkpt>
      <trkpt lat="48.89912" lon="1.92257">
        <ele>177.98</ele>
        <time>2014-03-15T09:00:52Z</time>
      </trkpt>
      <trkpt lat="48.89914" lon="1.92266">
        <ele>177.5</ele>
        <time>2014-03-15T09:00:59Z</time>
      </trkpt>
      <trkpt lat="48.89892" lon="1.9228">
        <ele>175.58</ele>
        <time>2014-03-15T09:01:14Z</time>
      </trkpt>
      <trkpt lat="48.89877" lon="1.92292">
        <ele>177.02</ele>
        <time>2014-03-15T09:01:30Z</time>
      </trkpt>
      <trkpt lat="48.89869" lon="1.923">
        <ele>178.94</ele>
        <time>2014-03-15T09:01:36Z</time>
      </trkpt>
      <trkpt lat="48.89862" lon="1.92302">
        <ele>178.46</ele>
        <time>2014-03-15T09:01:40Z</time>
      </trkpt>
      <trkpt lat="48.89853" lon="1.92307">
        <ele>178.46</ele>
        <time>2014-03-15T09:01:49Z</time>
      </trkpt>
      <trkpt lat="48.89827" lon="1.92326">
        <ele>177.98</ele>
        <time>2014-03-15T09:02:08Z</time>
      </trkpt>
      <trkpt lat="48.89807" lon="1.92338">
        <ele>175.58</ele>
        <time>2014-03-15T09:02:24Z</time>
      </trkpt>
      <trkpt lat="48.89782" lon="1.92349">
        <ele>174.14</ele>
        <time>2014-03-15T09:02:41Z</time>
      </trkpt>
      <trkpt lat="48.89761" lon="1.92356">
        <ele>175.1</ele>
        <time>2014-03-15T09:02:57Z</time>
      </trkpt>
      <trkpt lat="48.8975" lon="1.92358">
        <ele>175.1</ele>
        <time>2014-03-15T09:03:03Z</time>
      </trkpt>
      <trkpt lat="48.89735" lon="1.92364">
        <ele>175.1</ele>
        <time>2014-03-15T09:03:17Z</time>
      </trkpt>
      <trkpt lat="48.89709" lon="1.92368">
        <ele>176.54</ele>
        <time>2014-03-15T09:03:33Z</time>
      </trkpt>
      <trkpt lat="48.89692" lon="1.92369">
        <ele>173.66</ele>
        <time>2014-03-15T09:03:46Z</time>
      </trkpt>
      <trkpt lat="48.89677" lon="1.92371">
        <ele>171.73</ele>
        <time>2014-03-15T09:03:59Z</time>
      </trkpt>
      <trkpt lat="48.8957" lon="1.92429">
        <ele>164.04</ele>
        <time>2014-03-15T09:07:08Z</time>
      </trkpt>
      <trkpt lat="48.89565" lon="1.92433">
        <ele>164.04</ele>
        <time>2014-03-15T09:07:12Z</time>
      </trkpt>
      <trkpt lat="48.89542" lon="1.92442">
        <ele>165.96</ele>
        <time>2014-03-15T09:07:27Z</time>
      </trkpt>
      <trkpt lat="48.89521" lon="1.92455">
        <ele>164.04</ele>
        <time>2014-03-15T09:07:42Z</time>
      </trkpt>
      <trkpt lat="48.89511" lon="1.9246">
        <ele>164.04</ele>
        <time>2014-03-15T09:07:53Z</time>
      </trkpt>
      <trkpt lat="48.89492" lon="1.92466">
        <ele>164.52</ele>
        <time>2014-03-15T09:08:08Z</time>
      </trkpt>
      <trkpt lat="48.89486" lon="1.92473">
        <ele>160.68</ele>
        <time>2014-03-15T09:08:20Z</time>
      </trkpt>
      <trkpt lat="48.89487" lon="1.92476">
        <ele>160.2</ele>
        <time>2014-03-15T09:08:27Z</time>
      </trkpt>
      <trkpt lat="48.89501" lon="1.92491">
        <ele>157.31</ele>
        <time>2014-03-15T09:08:40Z</time>
      </trkpt>
      <trkpt lat="48.89512" lon="1.925">
        <ele>156.83</ele>
        <time>2014-03-15T09:08:52Z</time>
      </trkpt>
      <trkpt lat="48.89524" lon="1.92515">
        <ele>156.83</ele>
        <time>2014-03-15T09:09:05Z</time>
      </trkpt>
      <trkpt lat="48.89535" lon="1.9253">
        <ele>157.31</ele>
        <time>2014-03-15T09:09:13Z</time>
      </trkpt>
      <trkpt lat="48.8955" lon="1.92549">
        <ele>156.83</ele>
        <time>2014-03-15T09:09:27Z</time>
      </trkpt>
      <trkpt lat="48.89556" lon="1.92558">
        <ele>156.83</ele>
        <time>2014-03-15T09:09:35Z</time>
      </trkpt>
      <trkpt lat="48.89566" lon="1.92571">
        <ele>157.79</ele>
        <time>2014-03-15T09:09:49Z</time>
      </trkpt>
      <trkpt lat="48.89575" lon="1.92579">
        <ele>159.24</ele>
        <time>2014-03-15T09:10:01Z</time>
      </trkpt>
      <trkpt lat="48.89588" lon="1.92585">
        <ele>160.2</ele>
        <time>2014-03-15T09:10:15Z</time>
      </trkpt>
      <trkpt lat="48.89604" lon="1.9259">
        <ele>159.72</ele>
        <time>2014-03-15T09:10:29Z</time>
      </trkpt>
      <trkpt lat="48.89617" lon="1.92593">
        <ele>161.64</ele>
        <time>2014-03-15T09:10:43Z</time>
      </trkpt>
      <trkpt lat="48.89621" lon="1.92594">
        <ele>162.6</ele>
        <time>2014-03-15T09:10:47Z</time>
      </trkpt>
      <trkpt lat="48.89636" lon="1.92596">
        <ele>166.45</ele>
        <time>2014-03-15T09:11:01Z</time>
      </trkpt>
      <trkpt lat="48.89655" lon="1.92602">
        <ele>173.66</ele>
        <time>2014-03-15T09:11:17Z</time>
      </trkpt>
      <trkpt lat="48.89666" lon="1.92612">
        <ele>176.06</ele>
        <time>2014-03-15T09:11:29Z</time>
      </trkpt>
      <trkpt lat="48.89681" lon="1.92627">
        <ele>179.42</ele>
        <time>2014-03-15T09:11:42Z</time>
      </trkpt>
      <trkpt lat="48.89685" lon="1.92633">
        <ele>179.9</ele>
        <time>2014-03-15T09:11:45Z</time>
      </trkpt>
      <trkpt lat="48.8969" lon="1.92644">
        <ele>179.42</ele>
        <time>2014-03-15T09:11:50Z</time>
      </trkpt>
      <trkpt lat="48.89701" lon="1.92663">
        <ele>179.9</ele>
        <time>2014-03-15T09:12:01Z</time>
      </trkpt>
      <trkpt lat="48.89714" lon="1.92675">
        <ele>181.83</ele>
        <time>2014-03-15T09:12:14Z</time>
      </trkpt>
      <trkpt lat="48.89725" lon="1.92691">
        <ele>183.27</ele>
        <time>2014-03-15T09:12:28Z</time>
      </trkpt>
      <trkpt lat="48.89732" lon="1.92701">
        <ele>184.71</ele>
        <time>2014-03-15T09:12:43Z</time>
      </trkpt>
      <trkpt lat="48.89735" lon="1.92703">
        <ele>184.71</ele>
        <time>2014-03-15T09:12:46Z</time>
      </trkpt>
      <trkpt lat="48.89758" lon="1.92721">
        <ele>185.19</ele>
        <time>2014-03-15T09:13:00Z</time>
      </trkpt>
      <trkpt lat="48.89774" lon="1.92739">
        <ele>186.63</ele>
        <time>2014-03-15T09:13:13Z</time>
      </trkpt>
      <trkpt lat="48.89783" lon="1.92747">
        <ele>188.56</ele>
        <time>2014-03-15T09:13:26Z</time>
      </trkpt>
      <trkpt lat="48.89796" lon="1.92758">
        <ele>187.11</ele>
        <time>2014-03-15T09:13:39Z</time>
      </trkpt>
      <trkpt lat="48.89815" lon="1.92776">
        <ele>189.52</ele>
        <time>2014-03-15T09:13:51Z</time>
      </trkpt>
      <trkpt lat="48.89828" lon="1.92787">
        <ele>192.4</ele>
        <time>2014-03-15T09:14:02Z</time>
      </trkpt>
      <trkpt lat="48.89844" lon="1.92802">
        <ele>189.52</ele>
        <time>2014-03-15T09:14:17Z</time>
      </trkpt>
      <trkpt lat="48.89856" lon="1.92812">
        <ele>188.08</ele>
        <time>2014-03-15T09:14:27Z</time>
      </trkpt>
      <trkpt lat="48.89865" lon="1.92814">
        <ele>186.15</ele>
        <time>2014-03-15T09:14:38Z</time>
      </trkpt>
      <trkpt lat="48.89871" lon="1.92819">
        <ele>185.67</ele>
        <time>2014-03-15T09:14:42Z</time>
      </trkpt>
      <trkpt lat="48.89889" lon="1.92838">
        <ele>185.67</ele>
        <time>2014-03-15T09:14:56Z</time>
      </trkpt>
      <trkpt lat="48.8989" lon="1.92839">
        <ele>185.67</ele>
        <time>2014-03-15T09:14:58Z</time>
      </trkpt>
      <trkpt lat="48.89911" lon="1.92853">
        <ele>186.15</ele>
        <time>2014-03-15T09:15:15Z</time>
      </trkpt>
      <trkpt lat="48.89924" lon="1.92863">
        <ele>185.19</ele>
        <time>2014-03-15T09:15:28Z</time>
      </trkpt>
      <trkpt lat="48.89942" lon="1.92876">
        <ele>187.11</ele>
        <time>2014-03-15T09:15:42Z</time>
      </trkpt>
      <trkpt lat="48.89955" lon="1.92889">
        <ele>188.56</ele>
        <time>2014-03-15T09:15:56Z</time>
      </trkpt>
      <trkpt lat="48.89961" lon="1.92894">
        <ele>187.59</ele>
        <time>2014-03-15T09:16:01Z</time>
      </trkpt>
      <trkpt lat="48.89968" lon="1.92904">
        <ele>187.11</ele>
        <time>2014-03-15T09:16:07Z</time>
      </trkpt>
      <trkpt lat="48.89968" lon="1.92922">
        <ele>187.59</ele>
        <time>2014-03-15T09:16:15Z</time>
      </trkpt>
      <trkpt lat="48.89957" lon="1.92944">
        <ele>187.59</ele>
        <time>2014-03-15T09:16:28Z</time>
      </trkpt>
      <trkpt lat="48.89952" lon="1.9296">
        <ele>187.59</ele>
        <time>2014-03-15T09:16:42Z</time>
      </trkpt>
      <trkpt lat="48.8995" lon="1.92967">
        <ele>189.52</ele>
        <time>2014-03-15T09:16:46Z</time>
      </trkpt>
      <trkpt lat="48.89935" lon="1.92992">
        <ele>193.36</ele>
        <time>2014-03-15T09:16:59Z</time>
      </trkpt>
      <trkpt lat="48.89925" lon="1.93007">
        <ele>193.36</ele>
        <time>2014-03-15T09:17:12Z</time>
      </trkpt>
      <trkpt lat="48.89911" lon="1.93031">
        <ele>191.44</ele>
        <time>2014-03-15T09:17:25Z</time>
      </trkpt>
      <trkpt lat="48.89903" lon="1.93046">
        <ele>190.48</ele>
        <time>2014-03-15T09:17:38Z</time>
      </trkpt>
      <trkpt lat="48.89894" lon="1.93064">
        <ele>189.52</ele>
        <time>2014-03-15T09:17:53Z</time>
      </trkpt>
      <trkpt lat="48.89882" lon="1.93086">
        <ele>189.52</ele>
        <time>2014-03-15T09:18:02Z</time>
      </trkpt>
      <trkpt lat="48.89871" lon="1.93102">
        <ele>191.44</ele>
        <time>2014-03-15T09:18:15Z</time>
      </trkpt>
      <trkpt lat="48.89863" lon="1.93116">
        <ele>191.92</ele>
        <time>2014-03-15T09:18:27Z</time>
      </trkpt>
      <trkpt lat="48.89861" lon="1.93121">
        <ele>191.92</ele>
        <time>2014-03-15T09:18:30Z</time>
      </trkpt>
      <trkpt lat="48.8985" lon="1.93139">
        <ele>191.92</ele>
        <time>2014-03-15T09:18:44Z</time>
      </trkpt>
      <trkpt lat="48.89837" lon="1.93164">
        <ele>191.92</ele>
        <time>2014-03-15T09:18:58Z</time>
      </trkpt>
      <trkpt lat="48.89824" lon="1.93182">
        <ele>193.36</ele>
        <time>2014-03-15T09:19:11Z</time>
      </trkpt>
      <trkpt lat="48.89822" lon="1.93189">
        <ele>197.69</ele>
        <time>2014-03-15T09:19:23Z</time>
      </trkpt>
      <trkpt lat="48.89818" lon="1.93197">
        <ele>199.61</ele>
        <time>2014-03-15T09:19:34Z</time>
      </trkpt>
      <trkpt lat="48.89808" lon="1.93206">
        <ele>199.13</ele>
        <time>2014-03-15T09:19:45Z</time>
      </trkpt>
      <trkpt lat="48.89806" lon="1.9321">
        <ele>198.65</ele>
        <time>2014-03-15T09:19:49Z</time>
      </trkpt>
      <trkpt lat="48.89787" lon="1.93229">
        <ele>202.98</ele>
        <time>2014-03-15T09:20:04Z</time>
      </trkpt>
      <trkpt lat="48.89783" lon="1.93242">
        <ele>204.9</ele>
        <time>2014-03-15T09:20:14Z</time>
      </trkpt>
      <trkpt lat="48.89768" lon="1.93258">
        <ele>209.7</ele>
        <time>2014-03-15T09:20:27Z</time>
      </trkpt>
      <trkpt lat="48.89762" lon="1.93281">
        <ele>210.67</ele>
        <time>2014-03-15T09:20:42Z</time>
      </trkpt>
      <trkpt lat="48.89733" lon="1.93305">
        <ele>203.46</ele>
        <time>2014-03-15T09:20:56Z</time>
      </trkpt>
      <trkpt lat="48.89729" lon="1.93314">
        <ele>200.09</ele>
        <time>2014-03-15T09:21:03Z</time>
      </trkpt>
      <trkpt lat="48.89726" lon="1.93325">
        <ele>198.17</ele>
        <time>2014-03-15T09:21:08Z</time>
      </trkpt>
      <trkpt lat="48.89725" lon="1.93333">
        <ele>197.69</ele>
        <time>2014-03-15T09:21:11Z</time>
      </trkpt>
      <trkpt lat="48.8972" lon="1.93344">
        <ele>195.77</ele>
        <time>2014-03-15T09:21:17Z</time>
      </trkpt>
      <trkpt lat="48.89703" lon="1.93378">
        <ele>192.4</ele>
        <time>2014-03-15T09:21:32Z</time>
      </trkpt>
      <trkpt lat="48.89689" lon="1.93402">
        <ele>186.63</ele>
        <time>2014-03-15T09:21:49Z</time>
      </trkpt>
      <trkpt lat="48.89674" lon="1.93426">
        <ele>187.59</ele>
        <time>2014-03-15T09:22:03Z</time>
      </trkpt>
      <trkpt lat="48.89666" lon="1.93439">
        <ele>186.15</ele>
        <time>2014-03-15T09:22:13Z</time>
      </trkpt>
      <trkpt lat="48.89652" lon="1.93461">
        <ele>186.15</ele>
        <time>2014-03-15T09:22:29Z</time>
      </trkpt>
      <trkpt lat="48.89649" lon="1.93463">
        <ele>185.19</ele>
        <time>2014-03-15T09:22:34Z</time>
      </trkpt>
      <trkpt lat="48.89637" lon="1.93489">
        <ele>181.35</ele>
        <time>2014-03-15T09:22:48Z</time>
      </trkpt>
      <trkpt lat="48.89626" lon="1.93499">
        <ele>181.83</ele>
        <time>2014-03-15T09:23:01Z</time>
      </trkpt>
      <trkpt lat="48.89626" lon="1.93486">
        <ele>181.83</ele>
        <time>2014-03-15T09:23:16Z</time>
      </trkpt>
      <trkpt lat="48.89625" lon="1.93486">
        <ele>181.83</ele>
        <time>2014-03-15T09:23:41Z</time>
      </trkpt>
      <trkpt lat="48.89625" lon="1.93485">
        <ele>182.79</ele>
        <time>2014-03-15T09:24:09Z</time>
      </trkpt>
      <trkpt lat="48.89625" lon="1.93487">
        <ele>184.23</ele>
        <time>2014-03-15T09:24:30Z</time>
      </trkpt>
      <trkpt lat="48.89628" lon="1.93503">
        <ele>183.75</ele>
        <time>2014-03-15T09:24:47Z</time>
      </trkpt>
      <trkpt lat="48.8962" lon="1.93518">
        <ele>181.83</ele>
        <time>2014-03-15T09:25:04Z</time>
      </trkpt>
      <trkpt lat="48.89608" lon="1.93548">
        <ele>178.94</ele>
        <time>2014-03-15T09:25:22Z</time>
      </trkpt>
      <trkpt lat="48.89605" lon="1.93554">
        <ele>178.46</ele>
        <time>2014-03-15T09:25:26Z</time>
      </trkpt>
      <trkpt lat="48.89587" lon="1.93584">
        <ele>174.62</ele>
        <time>2014-03-15T09:25:46Z</time>
      </trkpt>
      <trkpt lat="48.89572" lon="1.93618">
        <ele>172.21</ele>
        <time>2014-03-15T09:26:06Z</time>
      </trkpt>
      <trkpt lat="48.89555" lon="1.93639">
        <ele>171.73</ele>
        <time>2014-03-15T09:26:23Z</time>
      </trkpt>
      <trkpt lat="48.89534" lon="1.93638">
        <ele>165.48</ele>
        <time>2014-03-15T09:26:42Z</time>
      </trkpt>
      <trkpt lat="48.89526" lon="1.93647">
        <ele>166.93</ele>
        <time>2014-03-15T09:26:51Z</time>
      </trkpt>
      <trkpt lat="48.895" lon="1.93648">
        <ele>168.85</ele>
        <time>2014-03-15T09:27:09Z</time>
      </trkpt>
      <trkpt lat="48.89479" lon="1.9365">
        <ele>174.14</ele>
        <time>2014-03-15T09:27:27Z</time>
      </trkpt>
      <trkpt lat="48.89459" lon="1.93665">
        <ele>177.02</ele>
        <time>2014-03-15T09:27:47Z</time>
      </trkpt>
      <trkpt lat="48.89442" lon="1.93701">
        <ele>179.9</ele>
        <time>2014-03-15T09:28:09Z</time>
      </trkpt>
      <trkpt lat="48.89426" lon="1.93738">
        <ele>177.98</ele>
        <time>2014-03-15T09:28:31Z</time>
      </trkpt>
      <trkpt lat="48.89414" lon="1.93782">
        <ele>170.29</ele>
        <time>2014-03-15T09:28:58Z</time>
      </trkpt>
      <trkpt lat="48.89407" lon="1.93798">
        <ele>170.29</ele>
        <time>2014-03-15T09:29:20Z</time>
      </trkpt>
      <trkpt lat="48.89416" lon="1.93845">
        <ele>171.73</ele>
        <time>2014-03-15T09:29:41Z</time>
      </trkpt>
      <trkpt lat="48.89421" lon="1.93885">
        <ele>172.69</ele>
        <time>2014-03-15T09:30:05Z</time>
      </trkpt>
      <trkpt lat="48.89396" lon="1.93912">
        <ele>177.02</ele>
        <time>2014-03-15T09:30:27Z</time>
      </trkpt>
      <trkpt lat="48.89381" lon="1.93944">
        <ele>178.46</ele>
        <time>2014-03-15T09:30:47Z</time>
      </trkpt>
      <trkpt lat="48.89361" lon="1.93977">
        <ele>177.5</ele>
        <time>2014-03-15T09:31:10Z</time>
      </trkpt>
      <trkpt lat="48.89344" lon="1.94005">
        <ele>176.06</ele>
        <time>2014-03-15T09:31:32Z</time>
      </trkpt>
      <trkpt lat="48.89326" lon="1.9403">
        <ele>177.02</ele>
        <time>2014-03-15T09:31:51Z</time>
      </trkpt>
      <trkpt lat="48.8931" lon="1.94062">
        <ele>177.98</ele>
        <time>2014-03-15T09:32:11Z</time>
      </trkpt>
      <trkpt lat="48.89294" lon="1.94092">
        <ele>177.98</ele>
        <time>2014-03-15T09:32:31Z</time>
      </trkpt>
      <trkpt lat="48.89274" lon="1.94124">
        <ele>180.87</ele>
        <time>2014-03-15T09:32:55Z</time>
      </trkpt>
      <trkpt lat="48.8926" lon="1.94149">
        <ele>178.46</ele>
        <time>2014-03-15T09:33:13Z</time>
      </trkpt>
      <trkpt lat="48.89242" lon="1.94178">
        <ele>174.14</ele>
        <time>2014-03-15T09:33:33Z</time>
      </trkpt>
      <trkpt lat="48.89227" lon="1.94204">
        <ele>170.77</ele>
        <time>2014-03-15T09:33:51Z</time>
      </trkpt>
      <trkpt lat="48.8921" lon="1.94234">
        <ele>171.25</ele>
        <time>2014-03-15T09:34:12Z</time>
      </trkpt>
      <trkpt lat="48.89198" lon="1.94257">
        <ele>170.29</ele>
        <time>2014-03-15T09:34:28Z</time>
      </trkpt>
      <trkpt lat="48.8918" lon="1.94289">
        <ele>169.81</ele>
        <time>2014-03-15T09:34:49Z</time>
      </trkpt>
      <trkpt lat="48.8917" lon="1.94304">
        <ele>170.29</ele>
        <time>2014-03-15T09:34:59Z</time>
      </trkpt>
      <trkpt lat="48.89153" lon="1.94311">
        <ele>170.77</ele>
        <time>2014-03-15T09:35:15Z</time>
      </trkpt>
      <trkpt lat="48.8913" lon="1.94309">
        <ele>171.73</ele>
        <time>2014-03-15T09:35:34Z</time>
      </trkpt>
      <trkpt lat="48.89119" lon="1.94285">
        <ele>174.14</ele>
        <time>2014-03-15T09:35:49Z</time>
      </trkpt>
      <trkpt lat="48.89118" lon="1.94283">
        <ele>174.14</ele>
        <time>2014-03-15T09:35:50Z</time>
      </trkpt>
      <trkpt lat="48.89105" lon="1.94238">
        <ele>181.83</ele>
        <time>2014-03-15T09:36:12Z</time>
      </trkpt>
      <trkpt lat="48.89097" lon="1.94207">
        <ele>188.56</ele>
        <time>2014-03-15T09:36:31Z</time>
      </trkpt>
      <trkpt lat="48.89084" lon="1.94185">
        <ele>187.59</ele>
        <time>2014-03-15T09:36:50Z</time>
      </trkpt>
      <trkpt lat="48.89064" lon="1.94163">
        <ele>185.67</ele>
        <time>2014-03-15T09:37:12Z</time>
      </trkpt>
      <trkpt lat="48.89046" lon="1.94144">
        <ele>186.15</ele>
        <time>2014-03-15T09:37:30Z</time>
      </trkpt>
      <trkpt lat="48.89029" lon="1.94128">
        <ele>185.67</ele>
        <time>2014-03-15T09:37:47Z</time>
      </trkpt>
      <trkpt lat="48.89022" lon="1.9412">
        <ele>185.19</ele>
        <time>2014-03-15T09:38:04Z</time>
      </trkpt>
      <trkpt lat="48.89015" lon="1.94109">
        <ele>185.19</ele>
        <time>2014-03-15T09:38:21Z</time>
      </trkpt>
      <trkpt lat="48.88994" lon="1.94077">
        <ele>185.67</ele>
        <time>2014-03-15T09:38:40Z</time>
      </trkpt>
      <trkpt lat="48.88983" lon="1.9406">
        <ele>185.67</ele>
        <time>2014-03-15T09:38:53Z</time>
      </trkpt>
      <trkpt lat="48.8897" lon="1.94035">
        <ele>185.19</ele>
        <time>2014-03-15T09:39:08Z</time>
      </trkpt>
      <trkpt lat="48.8896" lon="1.94004">
        <ele>183.75</ele>
        <time>2014-03-15T09:39:27Z</time>
      </trkpt>
      <trkpt lat="48.88953" lon="1.93979">
        <ele>183.27</ele>
        <time>2014-03-15T09:39:46Z</time>
      </trkpt>
      <trkpt lat="48.88948" lon="1.93952">
        <ele>181.83</ele>
        <time>2014-03-15T09:40:06Z</time>
      </trkpt>
      <trkpt lat="48.88933" lon="1.93898">
        <ele>174.14</ele>
        <time>2014-03-15T09:40:24Z</time>
      </trkpt>
      <trkpt lat="48.8893" lon="1.93879">
        <ele>173.17</ele>
        <time>2014-03-15T09:40:36Z</time>
      </trkpt>
      <trkpt lat="48.88925" lon="1.93852">
        <ele>171.25</ele>
        <time>2014-03-15T09:40:52Z</time>
      </trkpt>
      <trkpt lat="48.88917" lon="1.93823">
        <ele>168.85</ele>
        <time>2014-03-15T09:41:07Z</time>
      </trkpt>
      <trkpt lat="48.88912" lon="1.93798">
        <ele>167.89</ele>
        <time>2014-03-15T09:41:24Z</time>
      </trkpt>
      <trkpt lat="48.88903" lon="1.93772">
        <ele>165.96</ele>
        <time>2014-03-15T09:41:43Z</time>
      </trkpt>
      <trkpt lat="48.88887" lon="1.93741">
        <ele>164.52</ele>
        <time>2014-03-15T09:42:04Z</time>
      </trkpt>
      <trkpt lat="48.88876" lon="1.93714">
        <ele>164.04</ele>
        <time>2014-03-15T09:42:19Z</time>
      </trkpt>
      <trkpt lat="48.88866" lon="1.93692">
        <ele>162.12</ele>
        <time>2014-03-15T09:42:34Z</time>
      </trkpt>
      <trkpt lat="48.88864" lon="1.93689">
        <ele>162.12</ele>
        <time>2014-03-15T09:42:36Z</time>
      </trkpt>
      <trkpt lat="48.88853" lon="1.93662">
        <ele>162.6</ele>
        <time>2014-03-15T09:42:53Z</time>
      </trkpt>
      <trkpt lat="48.8884" lon="1.93636">
        <ele>159.72</ele>
        <time>2014-03-15T09:43:11Z</time>
      </trkpt>
      <trkpt lat="48.88823" lon="1.93609">
        <ele>156.35</ele>
        <time>2014-03-15T09:43:30Z</time>
      </trkpt>
      <trkpt lat="48.88805" lon="1.93581">
        <ele>155.39</ele>
        <time>2014-03-15T09:43:48Z</time>
      </trkpt>
      <trkpt lat="48.8879" lon="1.93559">
        <ele>152.99</ele>
        <time>2014-03-15T09:44:06Z</time>
      </trkpt>
      <trkpt lat="48.8878" lon="1.93542">
        <ele>151.54</ele>
        <time>2014-03-15T09:44:21Z</time>
      </trkpt>
      <trkpt lat="48.88766" lon="1.93518">
        <ele>151.06</ele>
        <time>2014-03-15T09:44:37Z</time>
      </trkpt>
      <trkpt lat="48.88748" lon="1.93488">
        <ele>149.62</ele>
        <time>2014-03-15T09:44:57Z</time>
      </trkpt>
      <trkpt lat="48.88734" lon="1.93464">
        <ele>146.74</ele>
        <time>2014-03-15T09:45:14Z</time>
      </trkpt>
      <trkpt lat="48.88718" lon="1.93438">
        <ele>142.89</ele>
        <time>2014-03-15T09:45:31Z</time>
      </trkpt>
      <trkpt lat="48.88704" lon="1.93415">
        <ele>141.45</ele>
        <time>2014-03-15T09:45:45Z</time>
      </trkpt>
      <trkpt lat="48.8869" lon="1.93394">
        <ele>140.97</ele>
        <time>2014-03-15T09:46:00Z</time>
      </trkpt>
      <trkpt lat="48.8868" lon="1.93375">
        <ele>141.45</ele>
        <time>2014-03-15T09:46:14Z</time>
      </trkpt>
      <trkpt lat="48.88668" lon="1.93351">
        <ele>139.05</ele>
        <time>2014-03-15T09:46:29Z</time>
      </trkpt>
      <trkpt lat="48.8865" lon="1.93327">
        <ele>135.2</ele>
        <time>2014-03-15T09:46:47Z</time>
      </trkpt>
      <trkpt lat="48.88635" lon="1.93302">
        <ele>132.8</ele>
        <time>2014-03-15T09:47:04Z</time>
      </trkpt>
      <trkpt lat="48.88623" lon="1.93281">
        <ele>130.88</ele>
        <time>2014-03-15T09:47:19Z</time>
      </trkpt>
      <trkpt lat="48.88605" lon="1.93253">
        <ele>129.92</ele>
        <time>2014-03-15T09:47:39Z</time>
      </trkpt>
      <trkpt lat="48.88587" lon="1.93225">
        <ele>131.36</ele>
        <time>2014-03-15T09:47:57Z</time>
      </trkpt>
      <trkpt lat="48.88572" lon="1.93197">
        <ele>131.36</ele>
        <time>2014-03-15T09:48:16Z</time>
      </trkpt>
      <trkpt lat="48.88565" lon="1.93186">
        <ele>130.4</ele>
        <time>2014-03-15T09:48:25Z</time>
      </trkpt>
      <trkpt lat="48.88544" lon="1.93169">
        <ele>128.95</ele>
        <time>2014-03-15T09:48:43Z</time>
      </trkpt>
      <trkpt lat="48.88523" lon="1.93156">
        <ele>129.43</ele>
        <time>2014-03-15T09:49:02Z</time>
      </trkpt>
      <trkpt lat="48.88495" lon="1.93142">
        <ele>130.4</ele>
        <time>2014-03-15T09:49:22Z</time>
      </trkpt>
      <trkpt lat="48.88472" lon="1.93126">
        <ele>129.92</ele>
        <time>2014-03-15T09:49:44Z</time>
      </trkpt>
      <trkpt lat="48.88451" lon="1.93112">
        <ele>132.32</ele>
        <time>2014-03-15T09:50:03Z</time>
      </trkpt>
      <trkpt lat="48.88426" lon="1.93103">
        <ele>137.13</ele>
        <time>2014-03-15T09:50:21Z</time>
      </trkpt>
      <trkpt lat="48.88405" lon="1.93087">
        <ele>139.05</ele>
        <time>2014-03-15T09:50:39Z</time>
      </trkpt>
      <trkpt lat="48.88399" lon="1.9308">
        <ele>139.53</ele>
        <time>2014-03-15T09:50:46Z</time>
      </trkpt>
      <trkpt lat="48.88373" lon="1.93111">
        <ele>110.69</ele>
        <time>2014-03-15T10:01:07Z</time>
      </trkpt>
      <trkpt lat="48.88366" lon="1.93117">
        <ele>111.17</ele>
        <time>2014-03-15T10:01:12Z</time>
      </trkpt>
      <trkpt lat="48.88362" lon="1.93114">
        <ele>110.69</ele>
        <time>2014-03-15T10:01:14Z</time>
      </trkpt>
      <trkpt lat="48.88354" lon="1.93096">
        <ele>106.84</ele>
        <time>2014-03-15T10:01:22Z</time>
      </trkpt>
      <trkpt lat="48.88349" lon="1.93076">
        <ele>105.88</ele>
        <time>2014-03-15T10:01:31Z</time>
      </trkpt>
      <trkpt lat="48.88341" lon="1.93062">
        <ele>108.29</ele>
        <time>2014-03-15T10:01:43Z</time>
      </trkpt>
      <trkpt lat="48.88338" lon="1.93045">
        <ele>108.29</ele>
        <time>2014-03-15T10:01:58Z</time>
      </trkpt>
      <trkpt lat="48.88335" lon="1.93031">
        <ele>107.81</ele>
        <time>2014-03-15T10:02:11Z</time>
      </trkpt>
      <trkpt lat="48.88332" lon="1.93015">
        <ele>106.36</ele>
        <time>2014-03-15T10:02:25Z</time>
      </trkpt>
      <trkpt lat="48.8833" lon="1.93006">
        <ele>105.88</ele>
        <time>2014-03-15T10:02:29Z</time>
      </trkpt>
      <trkpt lat="48.88326" lon="1.92985">
        <ele>103.48</ele>
        <time>2014-03-15T10:02:39Z</time>
      </trkpt>
      <trkpt lat="48.88317" lon="1.92953">
        <ele>103.96</ele>
        <time>2014-03-15T10:02:51Z</time>
      </trkpt>
      <trkpt lat="48.8831" lon="1.92925">
        <ele>104.44</ele>
        <time>2014-03-15T10:03:04Z</time>
      </trkpt>
      <trkpt lat="48.88305" lon="1.92907">
        <ele>105.88</ele>
        <time>2014-03-15T10:03:18Z</time>
      </trkpt>
      <trkpt lat="48.88302" lon="1.92888">
        <ele>104.44</ele>
        <time>2014-03-15T10:03:32Z</time>
      </trkpt>
      <trkpt lat="48.88299" lon="1.92862">
        <ele>103</ele>
        <time>2014-03-15T10:03:47Z</time>
      </trkpt>
      <trkpt lat="48.8829" lon="1.92827">
        <ele>100.6</ele>
        <time>2014-03-15T10:04:01Z</time>
      </trkpt>
      <trkpt lat="48.88287" lon="1.92819">
        <ele>100.6</ele>
        <time>2014-03-15T10:04:04Z</time>
      </trkpt>
      <trkpt lat="48.8828" lon="1.92807">
        <ele>100.11</ele>
        <time>2014-03-15T10:04:09Z</time>
      </trkpt>
      <trkpt lat="48.88275" lon="1.92798">
        <ele>100.11</ele>
        <time>2014-03-15T10:04:13Z</time>
      </trkpt>
      <trkpt lat="48.8826" lon="1.92773">
        <ele>96.75</ele>
        <time>2014-03-15T10:04:25Z</time>
      </trkpt>
      <trkpt lat="48.88252" lon="1.92765">
        <ele>95.79</ele>
        <time>2014-03-15T10:04:30Z</time>
      </trkpt>
      <trkpt lat="48.88244" lon="1.92754">
        <ele>94.83</ele>
        <time>2014-03-15T10:04:40Z</time>
      </trkpt>
      <trkpt lat="48.88235" lon="1.92732">
        <ele>88.1</ele>
        <time>2014-03-15T10:04:48Z</time>
      </trkpt>
      <trkpt lat="48.88226" lon="1.92703">
        <ele>80.89</ele>
        <time>2014-03-15T10:05:01Z</time>
      </trkpt>
      <trkpt lat="48.88226" lon="1.92697">
        <ele>80.41</ele>
        <time>2014-03-15T10:05:03Z</time>
      </trkpt>
      <trkpt lat="48.88221" lon="1.92681">
        <ele>78</ele>
        <time>2014-03-15T10:05:12Z</time>
      </trkpt>
      <trkpt lat="48.88217" lon="1.92673">
        <ele>77.52</ele>
        <time>2014-03-15T10:05:17Z</time>
      </trkpt>
      <trkpt lat="48.88212" lon="1.92654">
        <ele>77.52</ele>
        <time>2014-03-15T10:05:32Z</time>
      </trkpt>
      <trkpt lat="48.88207" lon="1.92617">
        <ele>78.97</ele>
        <time>2014-03-15T10:05:48Z</time>
      </trkpt>
      <trkpt lat="48.88204" lon="1.9259">
        <ele>79.45</ele>
        <time>2014-03-15T10:05:59Z</time>
      </trkpt>
      <trkpt lat="48.88195" lon="1.92552">
        <ele>80.41</ele>
        <time>2014-03-15T10:06:17Z</time>
      </trkpt>
      <trkpt lat="48.88188" lon="1.92528">
        <ele>81.85</ele>
        <time>2014-03-15T10:06:34Z</time>
      </trkpt>
      <trkpt lat="48.88182" lon="1.92516">
        <ele>84.73</ele>
        <time>2014-03-15T10:06:55Z</time>
      </trkpt>
      <trkpt lat="48.88183" lon="1.92503">
        <ele>85.69</ele>
        <time>2014-03-15T10:07:13Z</time>
      </trkpt>
      <trkpt lat="48.8818" lon="1.92488">
        <ele>86.66</ele>
        <time>2014-03-15T10:07:22Z</time>
      </trkpt>
      <trkpt lat="48.88172" lon="1.9248">
        <ele>87.14</ele>
        <time>2014-03-15T10:07:36Z</time>
      </trkpt>
      <trkpt lat="48.88174" lon="1.92464">
        <ele>88.1</ele>
        <time>2014-03-15T10:07:51Z</time>
      </trkpt>
      <trkpt lat="48.88177" lon="1.92449">
        <ele>88.1</ele>
        <time>2014-03-15T10:08:00Z</time>
      </trkpt>
      <trkpt lat="48.88176" lon="1.92428">
        <ele>87.14</ele>
        <time>2014-03-15T10:08:08Z</time>
      </trkpt>
      <trkpt lat="48.88162" lon="1.92404">
        <ele>88.58</ele>
        <time>2014-03-15T10:08:23Z</time>
      </trkpt>
      <trkpt lat="48.8816" lon="1.9241">
        <ele>89.54</ele>
        <time>2014-03-15T10:08:38Z</time>
      </trkpt>
      <trkpt lat="48.8816" lon="1.92404">
        <ele>89.54</ele>
        <time>2014-03-15T10:08:42Z</time>
      </trkpt>
      <trkpt lat="48.88159" lon="1.92391">
        <ele>89.06</ele>
        <time>2014-03-15T10:08:51Z</time>
      </trkpt>
      <trkpt lat="48.88162" lon="1.92378">
        <ele>90.02</ele>
        <time>2014-03-15T10:09:00Z</time>
      </trkpt>
      <trkpt lat="48.88169" lon="1.92336">
        <ele>92.42</ele>
        <time>2014-03-15T10:09:18Z</time>
      </trkpt>
      <trkpt lat="48.88174" lon="1.92325">
        <ele>92.42</ele>
        <time>2014-03-15T10:09:25Z</time>
      </trkpt>
      <trkpt lat="48.88176" lon="1.92317">
        <ele>92.42</ele>
        <time>2014-03-15T10:09:29Z</time>
      </trkpt>
      <trkpt lat="48.88187" lon="1.92289">
        <ele>91.94</ele>
        <time>2014-03-15T10:09:47Z</time>
      </trkpt>
      <trkpt lat="48.8819" lon="1.92279">
        <ele>91.46</ele>
        <time>2014-03-15T10:09:53Z</time>
      </trkpt>
      <trkpt lat="48.88192" lon="1.92238">
        <ele>91.46</ele>
        <time>2014-03-15T10:10:12Z</time>
      </trkpt>
      <trkpt lat="48.88205" lon="1.92211">
        <ele>92.42</ele>
        <time>2014-03-15T10:10:28Z</time>
      </trkpt>
      <trkpt lat="48.88198" lon="1.9219">
        <ele>94.35</ele>
        <time>2014-03-15T10:10:35Z</time>
      </trkpt>
      <trkpt lat="48.88184" lon="1.92165">
        <ele>99.63</ele>
        <time>2014-03-15T10:10:49Z</time>
      </trkpt>
      <trkpt lat="48.88177" lon="1.92156">
        <ele>101.08</ele>
        <time>2014-03-15T10:11:00Z</time>
      </trkpt>
      <trkpt lat="48.88176" lon="1.92155">
        <ele>101.08</ele>
        <time>2014-03-15T10:11:01Z</time>
      </trkpt>
      <trkpt lat="48.88158" lon="1.92136">
        <ele>102.04</ele>
        <time>2014-03-15T10:11:14Z</time>
      </trkpt>
      <trkpt lat="48.8815" lon="1.92118">
        <ele>102.04</ele>
        <time>2014-03-15T10:11:23Z</time>
      </trkpt>
      <trkpt lat="48.88136" lon="1.92101">
        <ele>102.04</ele>
        <time>2014-03-15T10:11:37Z</time>
      </trkpt>
      <trkpt lat="48.88135" lon="1.921">
        <ele>102.04</ele>
        <time>2014-03-15T10:11:38Z</time>
      </trkpt>
      <trkpt lat="48.88127" lon="1.92073">
        <ele>101.56</ele>
        <time>2014-03-15T10:11:51Z</time>
      </trkpt>
      <trkpt lat="48.88125" lon="1.92067">
        <ele>101.08</ele>
        <time>2014-03-15T10:11:56Z</time>
      </trkpt>
      <trkpt lat="48.88125" lon="1.92057">
        <ele>101.56</ele>
        <time>2014-03-15T10:12:00Z</time>
      </trkpt>
      <trkpt lat="48.88126" lon="1.92026">
        <ele>102.04</ele>
        <time>2014-03-15T10:12:12Z</time>
      </trkpt>
      <trkpt lat="48.88124" lon="1.92016">
        <ele>102.52</ele>
        <time>2014-03-15T10:12:20Z</time>
      </trkpt>
      <trkpt lat="48.88127" lon="1.91983">
        <ele>104.44</ele>
        <time>2014-03-15T10:12:34Z</time>
      </trkpt>
      <trkpt lat="48.88129" lon="1.91951">
        <ele>108.29</ele>
        <time>2014-03-15T10:12:48Z</time>
      </trkpt>
      <trkpt lat="48.8813" lon="1.9193">
        <ele>108.77</ele>
        <time>2014-03-15T10:13:01Z</time>
      </trkpt>
      <trkpt lat="48.88138" lon="1.91903">
        <ele>110.21</ele>
        <time>2014-03-15T10:13:14Z</time>
      </trkpt>
      <trkpt lat="48.88148" lon="1.91878">
        <ele>110.69</ele>
        <time>2014-03-15T10:13:27Z</time>
      </trkpt>
      <trkpt lat="48.88159" lon="1.91851">
        <ele>111.17</ele>
        <time>2014-03-15T10:13:41Z</time>
      </trkpt>
      <trkpt lat="48.88165" lon="1.91829">
        <ele>111.17</ele>
        <time>2014-03-15T10:13:52Z</time>
      </trkpt>
      <trkpt lat="48.88169" lon="1.91809">
        <ele>113.09</ele>
        <time>2014-03-15T10:14:03Z</time>
      </trkpt>
      <trkpt lat="48.88178" lon="1.91777">
        <ele>114.53</ele>
        <time>2014-03-15T10:14:19Z</time>
      </trkpt>
      <trkpt lat="48.88184" lon="1.91751">
        <ele>115.01</ele>
        <time>2014-03-15T10:14:31Z</time>
      </trkpt>
      <trkpt lat="48.88189" lon="1.91725">
        <ele>115.01</ele>
        <time>2014-03-15T10:14:44Z</time>
      </trkpt>
      <trkpt lat="48.88189" lon="1.9172">
        <ele>115.01</ele>
        <time>2014-03-15T10:14:48Z</time>
      </trkpt>
      <trkpt lat="48.88196" lon="1.91682">
        <ele>115.98</ele>
        <time>2014-03-15T10:15:07Z</time>
      </trkpt>
      <trkpt lat="48.88203" lon="1.91636">
        <ele>115.5</ele>
        <time>2014-03-15T10:15:30Z</time>
      </trkpt>
      <trkpt lat="48.8821" lon="1.91599">
        <ele>114.53</ele>
        <time>2014-03-15T10:15:50Z</time>
      </trkpt>
      <trkpt lat="48.88215" lon="1.91575">
        <ele>113.09</ele>
        <time>2014-03-15T10:16:03Z</time>
      </trkpt>
      <trkpt lat="48.88221" lon="1.91544">
        <ele>114.53</ele>
        <time>2014-03-15T10:16:16Z</time>
      </trkpt>
      <trkpt lat="48.8822" lon="1.91535">
        <ele>115.01</ele>
        <time>2014-03-15T10:16:22Z</time>
      </trkpt>
      <trkpt lat="48.88218" lon="1.91532">
        <ele>115.98</ele>
        <time>2014-03-15T10:16:24Z</time>
      </trkpt>
      <trkpt lat="48.88209" lon="1.91503">
        <ele>118.86</ele>
        <time>2014-03-15T10:16:37Z</time>
      </trkpt>
      <trkpt lat="48.88207" lon="1.91501">
        <ele>119.34</ele>
        <time>2014-03-15T10:16:40Z</time>
      </trkpt>
      <trkpt lat="48.88198" lon="1.91474">
        <ele>121.74</ele>
        <time>2014-03-15T10:16:52Z</time>
      </trkpt>
      <trkpt lat="48.88195" lon="1.91472">
        <ele>122.71</ele>
        <time>2014-03-15T10:16:56Z</time>
      </trkpt>
      <trkpt lat="48.8819" lon="1.91459">
        <ele>123.67</ele>
        <time>2014-03-15T10:17:02Z</time>
      </trkpt>
      <trkpt lat="48.88181" lon="1.91435">
        <ele>124.63</ele>
        <time>2014-03-15T10:17:16Z</time>
      </trkpt>
      <trkpt lat="48.88173" lon="1.91416">
        <ele>124.15</ele>
        <time>2014-03-15T10:17:27Z</time>
      </trkpt>
      <trkpt lat="48.88163" lon="1.91388">
        <ele>123.19</ele>
        <time>2014-03-15T10:17:39Z</time>
      </trkpt>
      <trkpt lat="48.88156" lon="1.91368">
        <ele>122.71</ele>
        <time>2014-03-15T10:17:51Z</time>
      </trkpt>
      <trkpt lat="48.88151" lon="1.91344">
        <ele>123.67</ele>
        <time>2014-03-15T10:18:02Z</time>
      </trkpt>
      <trkpt lat="48.88147" lon="1.91326">
        <ele>123.19</ele>
        <time>2014-03-15T10:18:14Z</time>
      </trkpt>
      <trkpt lat="48.8814" lon="1.91291">
        <ele>124.15</ele>
        <time>2014-03-15T10:18:30Z</time>
      </trkpt>
      <trkpt lat="48.88131" lon="1.91255">
        <ele>123.67</ele>
        <time>2014-03-15T10:18:47Z</time>
      </trkpt>
      <trkpt lat="48.88123" lon="1.91226">
        <ele>123.19</ele>
        <time>2014-03-15T10:19:03Z</time>
      </trkpt>
      <trkpt lat="48.88115" lon="1.91188">
        <ele>123.67</ele>
        <time>2014-03-15T10:19:20Z</time>
      </trkpt>
      <trkpt lat="48.88108" lon="1.91157">
        <ele>123.19</ele>
        <time>2014-03-15T10:19:35Z</time>
      </trkpt>
      <trkpt lat="48.881" lon="1.91125">
        <ele>122.71</ele>
        <time>2014-03-15T10:19:51Z</time>
      </trkpt>
      <trkpt lat="48.88092" lon="1.91095">
        <ele>123.19</ele>
        <time>2014-03-15T10:20:06Z</time>
      </trkpt>
      <trkpt lat="48.88082" lon="1.91061">
        <ele>122.71</ele>
        <time>2014-03-15T10:20:24Z</time>
      </trkpt>
      <trkpt lat="48.88073" lon="1.91027">
        <ele>123.19</ele>
        <time>2014-03-15T10:20:40Z</time>
      </trkpt>
      <trkpt lat="48.88064" lon="1.90998">
        <ele>123.67</ele>
        <time>2014-03-15T10:20:55Z</time>
      </trkpt>
      <trkpt lat="48.88054" lon="1.90961">
        <ele>124.15</ele>
        <time>2014-03-15T10:21:13Z</time>
      </trkpt>
      <trkpt lat="48.88044" lon="1.90926">
        <ele>124.15</ele>
        <time>2014-03-15T10:21:31Z</time>
      </trkpt>
      <trkpt lat="48.8803" lon="1.90881">
        <ele>121.74</ele>
        <time>2014-03-15T10:21:55Z</time>
      </trkpt>
      <trkpt lat="48.88014" lon="1.90836">
        <ele>121.74</ele>
        <time>2014-03-15T10:22:19Z</time>
      </trkpt>
      <trkpt lat="48.88002" lon="1.90808">
        <ele>122.71</ele>
        <time>2014-03-15T10:22:35Z</time>
      </trkpt>
      <trkpt lat="48.87993" lon="1.90782">
        <ele>124.63</ele>
        <time>2014-03-15T10:22:47Z</time>
      </trkpt>
      <trkpt lat="48.8799" lon="1.90777">
        <ele>124.63</ele>
        <time>2014-03-15T10:22:51Z</time>
      </trkpt>
      <trkpt lat="48.87988" lon="1.90767">
        <ele>124.63</ele>
        <time>2014-03-15T10:22:55Z</time>
      </trkpt>
      <trkpt lat="48.87978" lon="1.90736">
        <ele>125.59</ele>
        <time>2014-03-15T10:23:10Z</time>
      </trkpt>
      <trkpt lat="48.87971" lon="1.90708">
        <ele>125.59</ele>
        <time>2014-03-15T10:23:24Z</time>
      </trkpt>
      <trkpt lat="48.87965" lon="1.90679">
        <ele>124.15</ele>
        <time>2014-03-15T10:23:38Z</time>
      </trkpt>
      <trkpt lat="48.87959" lon="1.90652">
        <ele>123.19</ele>
        <time>2014-03-15T10:23:52Z</time>
      </trkpt>
      <trkpt lat="48.87954" lon="1.90626">
        <ele>123.19</ele>
        <time>2014-03-15T10:24:05Z</time>
      </trkpt>
      <trkpt lat="48.87948" lon="1.90597">
        <ele>123.19</ele>
        <time>2014-03-15T10:24:19Z</time>
      </trkpt>
      <trkpt lat="48.87942" lon="1.9057">
        <ele>121.74</ele>
        <time>2014-03-15T10:24:32Z</time>
      </trkpt>
      <trkpt lat="48.87937" lon="1.90526">
        <ele>122.22</ele>
        <time>2014-03-15T10:24:52Z</time>
      </trkpt>
      <trkpt lat="48.87932" lon="1.90486">
        <ele>121.26</ele>
        <time>2014-03-15T10:25:11Z</time>
      </trkpt>
      <trkpt lat="48.87932" lon="1.90475">
        <ele>121.26</ele>
        <time>2014-03-15T10:25:16Z</time>
      </trkpt>
      <trkpt lat="48.87931" lon="1.90457">
        <ele>121.74</ele>
        <time>2014-03-15T10:25:25Z</time>
      </trkpt>
      <trkpt lat="48.87927" lon="1.90424">
        <ele>121.26</ele>
        <time>2014-03-15T10:25:40Z</time>
      </trkpt>
      <trkpt lat="48.87924" lon="1.90381">
        <ele>120.3</ele>
        <time>2014-03-15T10:26:00Z</time>
      </trkpt>
      <trkpt lat="48.87922" lon="1.90342">
        <ele>120.78</ele>
        <time>2014-03-15T10:26:17Z</time>
      </trkpt>
      <trkpt lat="48.87917" lon="1.903">
        <ele>118.86</ele>
        <time>2014-03-15T10:26:37Z</time>
      </trkpt>
      <trkpt lat="48.87915" lon="1.90268">
        <ele>119.82</ele>
        <time>2014-03-15T10:26:52Z</time>
      </trkpt>
      <trkpt lat="48.87912" lon="1.90229">
        <ele>119.82</ele>
        <time>2014-03-15T10:27:11Z</time>
      </trkpt>
      <trkpt lat="48.87907" lon="1.90188">
        <ele>119.34</ele>
        <time>2014-03-15T10:27:30Z</time>
      </trkpt>
      <trkpt lat="48.87903" lon="1.90145">
        <ele>117.42</ele>
        <time>2014-03-15T10:27:50Z</time>
      </trkpt>
      <trkpt lat="48.87899" lon="1.90105">
        <ele>116.46</ele>
        <time>2014-03-15T10:28:09Z</time>
      </trkpt>
      <trkpt lat="48.87893" lon="1.90067">
        <ele>115.98</ele>
        <time>2014-03-15T10:28:28Z</time>
      </trkpt>
      <trkpt lat="48.87884" lon="1.90025">
        <ele>115.98</ele>
        <time>2014-03-15T10:28:49Z</time>
      </trkpt>
      <trkpt lat="48.87873" lon="1.89995">
        <ele>116.94</ele>
        <time>2014-03-15T10:29:05Z</time>
      </trkpt>
      <trkpt lat="48.87862" lon="1.89959">
        <ele>117.42</ele>
        <time>2014-03-15T10:29:23Z</time>
      </trkpt>
      <trkpt lat="48.87853" lon="1.89939">
        <ele>117.9</ele>
        <time>2014-03-15T10:29:34Z</time>
      </trkpt>
      <trkpt lat="48.87844" lon="1.8992">
        <ele>117.42</ele>
        <time>2014-03-15T10:29:47Z</time>
      </trkpt>
      <trkpt lat="48.87816" lon="1.89834">
        <ele>123.19</ele>
        <time>2014-03-15T10:30:50Z</time>
      </trkpt>
      <trkpt lat="48.87812" lon="1.89817">
        <ele>116.94</ele>
        <time>2014-03-15T10:30:57Z</time>
      </trkpt>
      <trkpt lat="48.87807" lon="1.89802">
        <ele>115.5</ele>
        <time>2014-03-15T10:31:02Z</time>
      </trkpt>
      <trkpt lat="48.87804" lon="1.89789">
        <ele>115.01</ele>
        <time>2014-03-15T10:31:06Z</time>
      </trkpt>
      <trkpt lat="48.87796" lon="1.89759">
        <ele>114.53</ele>
        <time>2014-03-15T10:31:15Z</time>
      </trkpt>
      <trkpt lat="48.87789" lon="1.89734">
        <ele>113.57</ele>
        <time>2014-03-15T10:31:23Z</time>
      </trkpt>
      <trkpt lat="48.87782" lon="1.8971">
        <ele>112.13</ele>
        <time>2014-03-15T10:31:30Z</time>
      </trkpt>
      <trkpt lat="48.87777" lon="1.89692">
        <ele>111.65</ele>
        <time>2014-03-15T10:31:38Z</time>
      </trkpt>
      <trkpt lat="48.8777" lon="1.89666">
        <ele>111.17</ele>
        <time>2014-03-15T10:31:46Z</time>
      </trkpt>
      <trkpt lat="48.87765" lon="1.89639">
        <ele>111.17</ele>
        <time>2014-03-15T10:31:54Z</time>
      </trkpt>
      <trkpt lat="48.8776" lon="1.8961">
        <ele>109.73</ele>
        <time>2014-03-15T10:32:03Z</time>
      </trkpt>
      <trkpt lat="48.87759" lon="1.89606">
        <ele>109.73</ele>
        <time>2014-03-15T10:32:04Z</time>
      </trkpt>
      <trkpt lat="48.87756" lon="1.89597">
        <ele>109.25</ele>
        <time>2014-03-15T10:32:07Z</time>
      </trkpt>
      <trkpt lat="48.8775" lon="1.89564">
        <ele>106.36</ele>
        <time>2014-03-15T10:32:17Z</time>
      </trkpt>
      <trkpt lat="48.87749" lon="1.89539">
        <ele>104.92</ele>
        <time>2014-03-15T10:32:24Z</time>
      </trkpt>
      <trkpt lat="48.87749" lon="1.89536">
        <ele>104.44</ele>
        <time>2014-03-15T10:32:25Z</time>
      </trkpt>
      <trkpt lat="48.87749" lon="1.89515">
        <ele>103</ele>
        <time>2014-03-15T10:32:31Z</time>
      </trkpt>
      <trkpt lat="48.87747" lon="1.89485">
        <ele>102.04</ele>
        <time>2014-03-15T10:32:40Z</time>
      </trkpt>
      <trkpt lat="48.87747" lon="1.89481">
        <ele>101.56</ele>
        <time>2014-03-15T10:32:41Z</time>
      </trkpt>
      <trkpt lat="48.87747" lon="1.89472">
        <ele>101.08</ele>
        <time>2014-03-15T10:32:44Z</time>
      </trkpt>
      <trkpt lat="48.87746" lon="1.89438">
        <ele>99.63</ele>
        <time>2014-03-15T10:32:54Z</time>
      </trkpt>
      <trkpt lat="48.87747" lon="1.89411">
        <ele>98.67</ele>
        <time>2014-03-15T10:33:02Z</time>
      </trkpt>
      <trkpt lat="48.87748" lon="1.89386">
        <ele>98.19</ele>
        <time>2014-03-15T10:33:09Z</time>
      </trkpt>
      <trkpt lat="48.87748" lon="1.89365">
        <ele>98.67</ele>
        <time>2014-03-15T10:33:15Z</time>
      </trkpt>
      <trkpt lat="48.87748" lon="1.89343">
        <ele>98.67</ele>
        <time>2014-03-15T10:33:21Z</time>
      </trkpt>
      <trkpt lat="48.87746" lon="1.89323">
        <ele>97.71</ele>
        <time>2014-03-15T10:33:26Z</time>
      </trkpt>
      <trkpt lat="48.87745" lon="1.89293">
        <ele>96.75</ele>
        <time>2014-03-15T10:33:38Z</time>
      </trkpt>
      <trkpt lat="48.87745" lon="1.89275">
        <ele>93.87</ele>
        <time>2014-03-15T10:33:45Z</time>
      </trkpt>
      <trkpt lat="48.87745" lon="1.89238">
        <ele>88.1</ele>
        <time>2014-03-15T10:33:58Z</time>
      </trkpt>
      <trkpt lat="48.8774" lon="1.89203">
        <ele>86.18</ele>
        <time>2014-03-15T10:34:10Z</time>
      </trkpt>
      <trkpt lat="48.87733" lon="1.89172">
        <ele>87.14</ele>
        <time>2014-03-15T10:34:23Z</time>
      </trkpt>
      <trkpt lat="48.87732" lon="1.89161">
        <ele>88.1</ele>
        <time>2014-03-15T10:34:28Z</time>
      </trkpt>
      <trkpt lat="48.87731" lon="1.89152">
        <ele>87.62</ele>
        <time>2014-03-15T10:34:31Z</time>
      </trkpt>
      <trkpt lat="48.87724" lon="1.89125">
        <ele>87.62</ele>
        <time>2014-03-15T10:34:42Z</time>
      </trkpt>
      <trkpt lat="48.87722" lon="1.89102">
        <ele>89.06</ele>
        <time>2014-03-15T10:34:52Z</time>
      </trkpt>
      <trkpt lat="48.8772" lon="1.89082">
        <ele>87.62</ele>
        <time>2014-03-15T10:35:02Z</time>
      </trkpt>
      <trkpt lat="48.87719" lon="1.89058">
        <ele>84.73</ele>
        <time>2014-03-15T10:35:14Z</time>
      </trkpt>
      <trkpt lat="48.87719" lon="1.89029">
        <ele>83.77</ele>
        <time>2014-03-15T10:35:26Z</time>
      </trkpt>
      <trkpt lat="48.87715" lon="1.88999">
        <ele>84.73</ele>
        <time>2014-03-15T10:35:43Z</time>
      </trkpt>
      <trkpt lat="48.87715" lon="1.89">
        <ele>84.73</ele>
        <time>2014-03-15T10:35:46Z</time>
      </trkpt>
      <trkpt lat="48.87715" lon="1.88997">
        <ele>84.25</ele>
        <time>2014-03-15T10:35:48Z</time>
      </trkpt>
      <trkpt lat="48.87715" lon="1.88956">
        <ele>81.85</ele>
        <time>2014-03-15T10:36:07Z</time>
      </trkpt>
      <trkpt lat="48.87716" lon="1.88943">
        <ele>81.85</ele>
        <time>2014-03-15T10:36:11Z</time>
      </trkpt>
      <trkpt lat="48.8771" lon="1.88912">
        <ele>80.41</ele>
        <time>2014-03-15T10:36:27Z</time>
      </trkpt>
      <trkpt lat="48.87706" lon="1.88881">
        <ele>78.97</ele>
        <time>2014-03-15T10:36:42Z</time>
      </trkpt>
      <trkpt lat="48.877" lon="1.8885">
        <ele>78</ele>
        <time>2014-03-15T10:36:56Z</time>
      </trkpt>
      <trkpt lat="48.87692" lon="1.88816">
        <ele>78.48</ele>
        <time>2014-03-15T10:37:13Z</time>
      </trkpt>
      <trkpt lat="48.87688" lon="1.88804">
        <ele>78</ele>
        <time>2014-03-15T10:37:26Z</time>
      </trkpt>
      <trkpt lat="48.87687" lon="1.88804">
        <ele>77.52</ele>
        <time>2014-03-15T10:37:33Z</time>
      </trkpt>
      <trkpt lat="48.87676" lon="1.88774">
        <ele>77.52</ele>
        <time>2014-03-15T10:37:50Z</time>
      </trkpt>
      <trkpt lat="48.87661" lon="1.8875">
        <ele>77.52</ele>
        <time>2014-03-15T10:38:05Z</time>
      </trkpt>
      <trkpt lat="48.87647" lon="1.88722">
        <ele>76.56</ele>
        <time>2014-03-15T10:38:23Z</time>
      </trkpt>
      <trkpt lat="48.87636" lon="1.88706">
        <ele>75.12</ele>
        <time>2014-03-15T10:38:38Z</time>
      </trkpt>
      <trkpt lat="48.87614" lon="1.88676">
        <ele>73.2</ele>
        <time>2014-03-15T10:38:58Z</time>
      </trkpt>
      <trkpt lat="48.87599" lon="1.88656">
        <ele>67.43</ele>
        <time>2014-03-15T10:39:10Z</time>
      </trkpt>
      <trkpt lat="48.87578" lon="1.8864">
        <ele>63.1</ele>
        <time>2014-03-15T10:39:27Z</time>
      </trkpt>
      <trkpt lat="48.87558" lon="1.88627">
        <ele>60.22</ele>
        <time>2014-03-15T10:39:44Z</time>
      </trkpt>
      <trkpt lat="48.87546" lon="1.88611">
        <ele>60.22</ele>
        <time>2014-03-15T10:40:01Z</time>
      </trkpt>
      <trkpt lat="48.87546" lon="1.88608">
        <ele>60.7</ele>
        <time>2014-03-15T10:40:11Z</time>
      </trkpt>
      <trkpt lat="48.8754" lon="1.88595">
        <ele>60.7</ele>
        <time>2014-03-15T10:40:25Z</time>
      </trkpt>
      <trkpt lat="48.87531" lon="1.88572">
        <ele>55.89</ele>
        <time>2014-03-15T10:40:38Z</time>
      </trkpt>
      <trkpt lat="48.8752" lon="1.8855">
        <ele>52.53</ele>
        <time>2014-03-15T10:40:50Z</time>
      </trkpt>
      <trkpt lat="48.87511" lon="1.88528">
        <ele>50.13</ele>
        <time>2014-03-15T10:41:01Z</time>
      </trkpt>
      <trkpt lat="48.87504" lon="1.88498">
        <ele>47.72</ele>
        <time>2014-03-15T10:41:12Z</time>
      </trkpt>
      <trkpt lat="48.87498" lon="1.88472">
        <ele>45.8</ele>
        <time>2014-03-15T10:41:22Z</time>
      </trkpt>
      <trkpt lat="48.87498" lon="1.8847">
        <ele>45.32</ele>
        <time>2014-03-15T10:41:23Z</time>
      </trkpt>
      <trkpt lat="48.87494" lon="1.88444">
        <ele>44.36</ele>
        <time>2014-03-15T10:41:34Z</time>
      </trkpt>
      <trkpt lat="48.8749" lon="1.88417">
        <ele>42.44</ele>
        <time>2014-03-15T10:41:46Z</time>
      </trkpt>
      <trkpt lat="48.87483" lon="1.88393">
        <ele>42.44</ele>
        <time>2014-03-15T10:41:57Z</time>
      </trkpt>
      <trkpt lat="48.87477" lon="1.88372">
        <ele>41.95</ele>
        <time>2014-03-15T10:42:07Z</time>
      </trkpt>
      <trkpt lat="48.87469" lon="1.8835">
        <ele>41.95</ele>
        <time>2014-03-15T10:42:19Z</time>
      </trkpt>
      <trkpt lat="48.87461" lon="1.88329">
        <ele>42.92</ele>
        <time>2014-03-15T10:42:31Z</time>
      </trkpt>
      <trkpt lat="48.8745" lon="1.88308">
        <ele>41.95</ele>
        <time>2014-03-15T10:42:43Z</time>
      </trkpt>
      <trkpt lat="48.87443" lon="1.88285">
        <ele>42.44</ele>
        <time>2014-03-15T10:42:54Z</time>
      </trkpt>
      <trkpt lat="48.87432" lon="1.88263">
        <ele>42.44</ele>
        <time>2014-03-15T10:43:06Z</time>
      </trkpt>
      <trkpt lat="48.87431" lon="1.88262">
        <ele>41.95</ele>
        <time>2014-03-15T10:43:07Z</time>
      </trkpt>
      <trkpt lat="48.87426" lon="1.88246">
        <ele>41.47</ele>
        <time>2014-03-15T10:43:14Z</time>
      </trkpt>
      <trkpt lat="48.87416" lon="1.88218">
        <ele>40.51</ele>
        <time>2014-03-15T10:43:30Z</time>
      </trkpt>
      <trkpt lat="48.87409" lon="1.88195">
        <ele>40.51</ele>
        <time>2014-03-15T10:43:42Z</time>
      </trkpt>
      <trkpt lat="48.87403" lon="1.88169">
        <ele>42.44</ele>
        <time>2014-03-15T10:43:55Z</time>
      </trkpt>
      <trkpt lat="48.87396" lon="1.88146">
        <ele>40.99</ele>
        <time>2014-03-15T10:44:07Z</time>
      </trkpt>
      <trkpt lat="48.87378" lon="1.88116">
        <ele>43.4</ele>
        <time>2014-03-15T10:44:24Z</time>
      </trkpt>
      <trkpt lat="48.87373" lon="1.88106">
        <ele>43.4</ele>
        <time>2014-03-15T10:44:30Z</time>
      </trkpt>
      <trkpt lat="48.87361" lon="1.88078">
        <ele>40.99</ele>
        <time>2014-03-15T10:44:46Z</time>
      </trkpt>
      <trkpt lat="48.87346" lon="1.8805">
        <ele>40.51</ele>
        <time>2014-03-15T10:45:01Z</time>
      </trkpt>
      <trkpt lat="48.87342" lon="1.88044">
        <ele>41.95</ele>
        <time>2014-03-15T10:45:07Z</time>
      </trkpt>
      <trkpt lat="48.87339" lon="1.88035">
        <ele>42.92</ele>
        <time>2014-03-15T10:45:11Z</time>
      </trkpt>
      <trkpt lat="48.87332" lon="1.88033">
        <ele>43.4</ele>
        <time>2014-03-15T10:45:17Z</time>
      </trkpt>
      <trkpt lat="48.87328" lon="1.88058">
        <ele>45.8</ele>
        <time>2014-03-15T10:45:28Z</time>
      </trkpt>
      <trkpt lat="48.87321" lon="1.88086">
        <ele>47.24</ele>
        <time>2014-03-15T10:45:40Z</time>
      </trkpt>
      <trkpt lat="48.87313" lon="1.88113">
        <ele>48.2</ele>
        <time>2014-03-15T10:45:55Z</time>
      </trkpt>
      <trkpt lat="48.87303" lon="1.88137">
        <ele>49.65</ele>
        <time>2014-03-15T10:46:10Z</time>
      </trkpt>
      <trkpt lat="48.87293" lon="1.88136">
        <ele>49.16</ele>
        <time>2014-03-15T10:46:19Z</time>
      </trkpt>
      <trkpt lat="48.87275" lon="1.88134">
        <ele>52.53</ele>
        <time>2014-03-15T10:46:30Z</time>
      </trkpt>
      <trkpt lat="48.87256" lon="1.88128">
        <ele>55.89</ele>
        <time>2014-03-15T10:46:43Z</time>
      </trkpt>
      <trkpt lat="48.87235" lon="1.88113">
        <ele>56.37</ele>
        <time>2014-03-15T10:46:58Z</time>
      </trkpt>
      <trkpt lat="48.87212" lon="1.88101">
        <ele>55.41</ele>
        <time>2014-03-15T10:47:16Z</time>
      </trkpt>
      <trkpt lat="48.87196" lon="1.88097">
        <ele>55.89</ele>
        <time>2014-03-15T10:47:32Z</time>
      </trkpt>
      <trkpt lat="48.8718" lon="1.88092">
        <ele>57.82</ele>
        <time>2014-03-15T10:47:45Z</time>
      </trkpt>
      <trkpt lat="48.87174" lon="1.8809">
        <ele>57.82</ele>
        <time>2014-03-15T10:47:52Z</time>
      </trkpt>
      <trkpt lat="48.87171" lon="1.88091">
        <ele>57.82</ele>
        <time>2014-03-15T10:47:54Z</time>
      </trkpt>
      <trkpt lat="48.87164" lon="1.88089">
        <ele>56.37</ele>
        <time>2014-03-15T10:47:58Z</time>
      </trkpt>
      <trkpt lat="48.87148" lon="1.8809">
        <ele>55.41</ele>
        <time>2014-03-15T10:48:12Z</time>
      </trkpt>
      <trkpt lat="48.87132" lon="1.88092">
        <ele>56.86</ele>
        <time>2014-03-15T10:48:23Z</time>
      </trkpt>
      <trkpt lat="48.87115" lon="1.88093">
        <ele>58.78</ele>
        <time>2014-03-15T10:48:34Z</time>
      </trkpt>
      <trkpt lat="48.87097" lon="1.88094">
        <ele>61.18</ele>
        <time>2014-03-15T10:48:47Z</time>
      </trkpt>
      <trkpt lat="48.87079" lon="1.8809">
        <ele>63.58</ele>
        <time>2014-03-15T10:48:59Z</time>
      </trkpt>
      <trkpt lat="48.87065" lon="1.88082">
        <ele>66.95</ele>
        <time>2014-03-15T10:49:09Z</time>
      </trkpt>
      <trkpt lat="48.87056" lon="1.88079">
        <ele>68.87</ele>
        <time>2014-03-15T10:49:15Z</time>
      </trkpt>
      <trkpt lat="48.87039" lon="1.88069">
        <ele>71.76</ele>
        <time>2014-03-15T10:49:27Z</time>
      </trkpt>
      <trkpt lat="48.87036" lon="1.88066">
        <ele>71.76</ele>
        <time>2014-03-15T10:49:29Z</time>
      </trkpt>
      <trkpt lat="48.87018" lon="1.88058">
        <ele>73.2</ele>
        <time>2014-03-15T10:49:42Z</time>
      </trkpt>
      <trkpt lat="48.86994" lon="1.88048">
        <ele>75.12</ele>
        <time>2014-03-15T10:49:59Z</time>
      </trkpt>
      <trkpt lat="48.86972" lon="1.88033">
        <ele>75.12</ele>
        <time>2014-03-15T10:50:16Z</time>
      </trkpt>
      <trkpt lat="48.86938" lon="1.8801">
        <ele>75.12</ele>
        <time>2014-03-15T10:50:40Z</time>
      </trkpt>
      <trkpt lat="48.86925" lon="1.87999">
        <ele>74.16</ele>
        <time>2014-03-15T10:50:59Z</time>
      </trkpt>
      <trkpt lat="48.86895" lon="1.87974">
        <ele>73.68</ele>
        <time>2014-03-15T10:51:15Z</time>
      </trkpt>
      <trkpt lat="48.86892" lon="1.87972">
        <ele>74.16</ele>
        <time>2014-03-15T10:51:16Z</time>
      </trkpt>
      <trkpt lat="48.86882" lon="1.87963">
        <ele>74.64</ele>
        <time>2014-03-15T10:51:21Z</time>
      </trkpt>
      <trkpt lat="48.86859" lon="1.87941">
        <ele>74.64</ele>
        <time>2014-03-15T10:51:38Z</time>
      </trkpt>
      <trkpt lat="48.86842" lon="1.87925">
        <ele>72.72</ele>
        <time>2014-03-15T10:51:52Z</time>
      </trkpt>
      <trkpt lat="48.86823" lon="1.87911">
        <ele>74.16</ele>
        <time>2014-03-15T10:52:07Z</time>
      </trkpt>
      <trkpt lat="48.86801" lon="1.87891">
        <ele>76.08</ele>
        <time>2014-03-15T10:52:26Z</time>
      </trkpt>
      <trkpt lat="48.86783" lon="1.87874">
        <ele>74.64</ele>
        <time>2014-03-15T10:52:40Z</time>
      </trkpt>
      <trkpt lat="48.86764" lon="1.87859">
        <ele>75.12</ele>
        <time>2014-03-15T10:52:54Z</time>
      </trkpt>
      <trkpt lat="48.86743" lon="1.8784">
        <ele>74.16</ele>
        <time>2014-03-15T10:53:06Z</time>
      </trkpt>
      <trkpt lat="48.86721" lon="1.8782">
        <ele>72.24</ele>
        <time>2014-03-15T10:53:17Z</time>
      </trkpt>
      <trkpt lat="48.86699" lon="1.878">
        <ele>72.72</ele>
        <time>2014-03-15T10:53:33Z</time>
      </trkpt>
      <trkpt lat="48.86695" lon="1.87797">
        <ele>72.72</ele>
        <time>2014-03-15T10:53:35Z</time>
      </trkpt>
      <trkpt lat="48.86681" lon="1.87785">
        <ele>73.68</ele>
        <time>2014-03-15T10:53:43Z</time>
      </trkpt>
      <trkpt lat="48.86677" lon="1.87781">
        <ele>74.16</ele>
        <time>2014-03-15T10:53:46Z</time>
      </trkpt>
      <trkpt lat="48.86662" lon="1.87767">
        <ele>76.56</ele>
        <time>2014-03-15T10:54:02Z</time>
      </trkpt>
      <trkpt lat="48.86631" lon="1.87739">
        <ele>79.45</ele>
        <time>2014-03-15T10:54:25Z</time>
      </trkpt>
      <trkpt lat="48.86601" lon="1.87721">
        <ele>83.77</ele>
        <time>2014-03-15T10:54:48Z</time>
      </trkpt>
      <trkpt lat="48.86569" lon="1.87714">
        <ele>87.62</ele>
        <time>2014-03-15T10:55:12Z</time>
      </trkpt>
      <trkpt lat="48.8653" lon="1.87706">
        <ele>88.58</ele>
        <time>2014-03-15T10:55:39Z</time>
      </trkpt>
      <trkpt lat="48.86518" lon="1.87705">
        <ele>88.58</ele>
        <time>2014-03-15T10:55:54Z</time>
      </trkpt>
      <trkpt lat="48.86483" lon="1.87702">
        <ele>90.02</ele>
        <time>2014-03-15T10:56:14Z</time>
      </trkpt>
      <trkpt lat="48.86463" lon="1.877">
        <ele>90.02</ele>
        <time>2014-03-15T10:56:33Z</time>
      </trkpt>
      <trkpt lat="48.86422" lon="1.87703">
        <ele>89.06</ele>
        <time>2014-03-15T10:56:51Z</time>
      </trkpt>
      <trkpt lat="48.86387" lon="1.87718">
        <ele>86.18</ele>
        <time>2014-03-15T10:57:08Z</time>
      </trkpt>
      <trkpt lat="48.86364" lon="1.87728">
        <ele>80.41</ele>
        <time>2014-03-15T10:57:24Z</time>
      </trkpt>
      <trkpt lat="48.86344" lon="1.87737">
        <ele>78.97</ele>
        <time>2014-03-15T10:57:38Z</time>
      </trkpt>
      <trkpt lat="48.86323" lon="1.87745">
        <ele>78.97</ele>
        <time>2014-03-15T10:57:52Z</time>
      </trkpt>
      <trkpt lat="48.86313" lon="1.87749">
        <ele>78.97</ele>
        <time>2014-03-15T10:57:57Z</time>
      </trkpt>
      <trkpt lat="48.86293" lon="1.87754">
        <ele>80.89</ele>
        <time>2014-03-15T10:58:05Z</time>
      </trkpt>
      <trkpt lat="48.8627" lon="1.87763">
        <ele>80.89</ele>
        <time>2014-03-15T10:58:15Z</time>
      </trkpt>
      <trkpt lat="48.86265" lon="1.87765">
        <ele>80.41</ele>
        <time>2014-03-15T10:58:20Z</time>
      </trkpt>
      <trkpt lat="48.86257" lon="1.87767">
        <ele>79.45</ele>
        <time>2014-03-15T10:58:24Z</time>
      </trkpt>
      <trkpt lat="48.86241" lon="1.87773">
        <ele>78.48</ele>
        <time>2014-03-15T10:58:35Z</time>
      </trkpt>
      <trkpt lat="48.86225" lon="1.87777">
        <ele>77.04</ele>
        <time>2014-03-15T10:58:46Z</time>
      </trkpt>
      <trkpt lat="48.86218" lon="1.87767">
        <ele>75.6</ele>
        <time>2014-03-15T10:58:52Z</time>
      </trkpt>
      <trkpt lat="48.86217" lon="1.87743">
        <ele>73.2</ele>
        <time>2014-03-15T10:59:00Z</time>
      </trkpt>
      <trkpt lat="48.86215" lon="1.87722">
        <ele>71.27</ele>
        <time>2014-03-15T10:59:09Z</time>
      </trkpt>
      <trkpt lat="48.86213" lon="1.87701">
        <ele>69.35</ele>
        <time>2014-03-15T10:59:18Z</time>
      </trkpt>
      <trkpt lat="48.86212" lon="1.87688">
        <ele>68.87</ele>
        <time>2014-03-15T10:59:24Z</time>
      </trkpt>
      <trkpt lat="48.8621" lon="1.8767">
        <ele>66.95</ele>
        <time>2014-03-15T10:59:33Z</time>
      </trkpt>
      <trkpt lat="48.86207" lon="1.87649">
        <ele>65.51</ele>
        <time>2014-03-15T10:59:42Z</time>
      </trkpt>
      <trkpt lat="48.86206" lon="1.87635">
        <ele>62.62</ele>
        <time>2014-03-15T10:59:51Z</time>
      </trkpt>
      <trkpt lat="48.86207" lon="1.87611">
        <ele>60.7</ele>
        <time>2014-03-15T11:00:02Z</time>
      </trkpt>
      <trkpt lat="48.86208" lon="1.87584">
        <ele>57.34</ele>
        <time>2014-03-15T11:00:13Z</time>
      </trkpt>
      <trkpt lat="48.86208" lon="1.8757">
        <ele>56.37</ele>
        <time>2014-03-15T11:00:20Z</time>
      </trkpt>
      <trkpt lat="48.86211" lon="1.87545">
        <ele>54.93</ele>
        <time>2014-03-15T11:00:31Z</time>
      </trkpt>
      <trkpt lat="48.86212" lon="1.8754">
        <ele>54.93</ele>
        <time>2014-03-15T11:00:33Z</time>
      </trkpt>
      <trkpt lat="48.86208" lon="1.87529">
        <ele>54.45</ele>
        <time>2014-03-15T11:00:38Z</time>
      </trkpt>
      <trkpt lat="48.86204" lon="1.87527">
        <ele>54.45</ele>
        <time>2014-03-15T11:00:43Z</time>
      </trkpt>
      <trkpt lat="48.86185" lon="1.87533">
        <ele>56.86</ele>
        <time>2014-03-15T11:00:56Z</time>
      </trkpt>
      <trkpt lat="48.86169" lon="1.87535">
        <ele>57.82</ele>
        <time>2014-03-15T11:01:07Z</time>
      </trkpt>
      <trkpt lat="48.86153" lon="1.87538">
        <ele>59.74</ele>
        <time>2014-03-15T11:01:18Z</time>
      </trkpt>
      <trkpt lat="48.86152" lon="1.87536">
        <ele>60.22</ele>
        <time>2014-03-15T11:01:20Z</time>
      </trkpt>
      <trkpt lat="48.86141" lon="1.87512">
        <ele>60.22</ele>
        <time>2014-03-15T11:01:33Z</time>
      </trkpt>
      <trkpt lat="48.86126" lon="1.87501">
        <ele>62.14</ele>
        <time>2014-03-15T11:01:45Z</time>
      </trkpt>
      <trkpt lat="48.86123" lon="1.87502">
        <ele>61.66</ele>
        <time>2014-03-15T11:01:48Z</time>
      </trkpt>
      <trkpt lat="48.86104" lon="1.87506">
        <ele>60.7</ele>
        <time>2014-03-15T11:02:01Z</time>
      </trkpt>
      <trkpt lat="48.86084" lon="1.8751">
        <ele>57.82</ele>
        <time>2014-03-15T11:02:14Z</time>
      </trkpt>
      <trkpt lat="48.86066" lon="1.87516">
        <ele>54.93</ele>
        <time>2014-03-15T11:02:27Z</time>
      </trkpt>
      <trkpt lat="48.86047" lon="1.87521">
        <ele>53.49</ele>
        <time>2014-03-15T11:02:41Z</time>
      </trkpt>
      <trkpt lat="48.86028" lon="1.87527">
        <ele>53.97</ele>
        <time>2014-03-15T11:02:55Z</time>
      </trkpt>
      <trkpt lat="48.86008" lon="1.87532">
        <ele>54.45</ele>
        <time>2014-03-15T11:03:07Z</time>
      </trkpt>
      <trkpt lat="48.85989" lon="1.87536">
        <ele>51.09</ele>
        <time>2014-03-15T11:03:21Z</time>
      </trkpt>
      <trkpt lat="48.85973" lon="1.87542">
        <ele>52.05</ele>
        <time>2014-03-15T11:03:35Z</time>
      </trkpt>
      <trkpt lat="48.85955" lon="1.87549">
        <ele>53.01</ele>
        <time>2014-03-15T11:03:49Z</time>
      </trkpt>
      <trkpt lat="48.85943" lon="1.87555">
        <ele>49.16</ele>
        <time>2014-03-15T11:03:58Z</time>
      </trkpt>
      <trkpt lat="48.8594" lon="1.87568">
        <ele>49.16</ele>
        <time>2014-03-15T11:04:10Z</time>
      </trkpt>
      <trkpt lat="48.85933" lon="1.87569">
        <ele>49.65</ele>
        <time>2014-03-15T11:04:19Z</time>
      </trkpt>
      <trkpt lat="48.85928" lon="1.87576">
        <ele>51.57</ele>
        <time>2014-03-15T11:04:27Z</time>
      </trkpt>
      <trkpt lat="48.85939" lon="1.87571">
        <ele>50.13</ele>
        <time>2014-03-15T11:04:40Z</time>
      </trkpt>
      <trkpt lat="48.85941" lon="1.87555">
        <ele>52.53</ele>
        <time>2014-03-15T11:04:51Z</time>
      </trkpt>
      <trkpt lat="48.85927" lon="1.87558">
        <ele>52.53</ele>
        <time>2014-03-15T11:05:05Z</time>
      </trkpt>
    </trkseg>
  </trk>
</gpx>